<?xml version="1.0" encoding="UTF-8" standalone="no" ?>
<gpx xmlns="http://www.topografix.com/GPX/1/1" xmlns:xsi="http://www.w3.org/2001/XMLSchema-instance" xsi:schemaLocation="http://www.topografix.com/GPX/1/1 http://www.topografix.com/GPX/1/1/gpx.xsd" version="1.1" creator="VisuGPX - https://www.visugpx.com">
  <metadata>
    <name>Sortie nocturne avec Pierre 57</name>
    <desc><![CDATA[Sortie de nuit à Bagnols en Forêt]]></desc>
  </metadata>
  <trk>
    <name><![CDATA[ACTIVE LOG-MNT]]></name>
    <trkseg>
      <trkpt lat="43.54167" lon="6.70001">
        <ele>288.122681</ele>
        <time>2010-06-26T22:03:26Z</time>
      </trkpt>
      <trkpt lat="43.54172" lon="6.69994">
        <ele>289.994751</ele>
        <time>2010-06-26T22:04:00Z</time>
      </trkpt>
      <trkpt lat="43.54172" lon="6.69994">
        <ele>289.994751</ele>
        <time>2010-06-26T22:04:04Z</time>
      </trkpt>
      <trkpt lat="43.54167" lon="6.70005">
        <ele>287.891663</ele>
        <time>2010-06-26T22:04:09Z</time>
      </trkpt>
      <trkpt lat="43.54167" lon="6.70016">
        <ele>287.10202</ele>
        <time>2010-06-26T22:04:13Z</time>
      </trkpt>
      <trkpt lat="43.54167" lon="6.70022">
        <ele>286.560059</ele>
        <time>2010-06-26T22:04:15Z</time>
      </trkpt>
      <trkpt lat="43.54169" lon="6.70029">
        <ele>286.973602</ele>
        <time>2010-06-26T22:04:18Z</time>
      </trkpt>
      <trkpt lat="43.54174" lon="6.70035">
        <ele>288.497528</ele>
        <time>2010-06-26T22:04:22Z</time>
      </trkpt>
      <trkpt lat="43.54182" lon="6.70042">
        <ele>290.299194</ele>
        <time>2010-06-26T22:04:29Z</time>
      </trkpt>
      <trkpt lat="43.54191" lon="6.70046">
        <ele>291.739136</ele>
        <time>2010-06-26T22:04:34Z</time>
      </trkpt>
      <trkpt lat="43.54199" lon="6.7005">
        <ele>293.201904</ele>
        <time>2010-06-26T22:04:40Z</time>
      </trkpt>
      <trkpt lat="43.54232" lon="6.70054">
        <ele>298.79425</ele>
        <time>2010-06-26T22:04:59Z</time>
      </trkpt>
      <trkpt lat="43.54266" lon="6.70065">
        <ele>303.674255</ele>
        <time>2010-06-26T22:05:20Z</time>
      </trkpt>
      <trkpt lat="43.54266" lon="6.70065">
        <ele>303.674255</ele>
        <time>2010-06-26T22:05:21Z</time>
      </trkpt>
      <trkpt lat="43.5427" lon="6.70065">
        <ele>304.330811</ele>
        <time>2010-06-26T22:05:23Z</time>
      </trkpt>
      <trkpt lat="43.54279" lon="6.70069">
        <ele>305.550812</ele>
        <time>2010-06-26T22:05:30Z</time>
      </trkpt>
      <trkpt lat="43.543" lon="6.70078">
        <ele>308.728699</ele>
        <time>2010-06-26T22:05:45Z</time>
      </trkpt>
      <trkpt lat="43.54322" lon="6.70089">
        <ele>310.591705</ele>
        <time>2010-06-26T22:05:59Z</time>
      </trkpt>
      <trkpt lat="43.54339" lon="6.70093">
        <ele>311.362244</ele>
        <time>2010-06-26T22:06:08Z</time>
      </trkpt>
      <trkpt lat="43.54358" lon="6.70106">
        <ele>311.75647</ele>
        <time>2010-06-26T22:06:17Z</time>
      </trkpt>
      <trkpt lat="43.54367" lon="6.70117">
        <ele>311.355774</ele>
        <time>2010-06-26T22:06:22Z</time>
      </trkpt>
      <trkpt lat="43.54365" lon="6.70125">
        <ele>311.435699</ele>
        <time>2010-06-26T22:06:25Z</time>
      </trkpt>
      <trkpt lat="43.54356" lon="6.70149">
        <ele>311.797729</ele>
        <time>2010-06-26T22:06:32Z</time>
      </trkpt>
      <trkpt lat="43.5432" lon="6.70248">
        <ele>312.650116</ele>
        <time>2010-06-26T22:07:02Z</time>
      </trkpt>
      <trkpt lat="43.54313" lon="6.70263">
        <ele>312.500153</ele>
        <time>2010-06-26T22:07:05Z</time>
      </trkpt>
      <trkpt lat="43.54283" lon="6.70473">
        <ele>312.716187</ele>
        <time>2010-06-26T22:07:39Z</time>
      </trkpt>
      <trkpt lat="43.54275" lon="6.70557">
        <ele>307.247284</ele>
        <time>2010-06-26T22:07:53Z</time>
      </trkpt>
      <trkpt lat="43.54296" lon="6.70557">
        <ele>308.481903</ele>
        <time>2010-06-26T22:07:58Z</time>
      </trkpt>
      <trkpt lat="43.5436" lon="6.70563">
        <ele>311.1828</ele>
        <time>2010-06-26T22:08:20Z</time>
      </trkpt>
      <trkpt lat="43.54397" lon="6.70569">
        <ele>313.013397</ele>
        <time>2010-06-26T22:08:35Z</time>
      </trkpt>
      <trkpt lat="43.54442" lon="6.70587">
        <ele>314.867401</ele>
        <time>2010-06-26T22:08:52Z</time>
      </trkpt>
      <trkpt lat="43.54457" lon="6.70589">
        <ele>315.444397</ele>
        <time>2010-06-26T22:08:58Z</time>
      </trkpt>
      <trkpt lat="43.54511" lon="6.70567">
        <ele>319.868988</ele>
        <time>2010-06-26T22:09:23Z</time>
      </trkpt>
      <trkpt lat="43.54549" lon="6.7055">
        <ele>322.828247</ele>
        <time>2010-06-26T22:09:40Z</time>
      </trkpt>
      <trkpt lat="43.54599" lon="6.70542">
        <ele>327.202423</ele>
        <time>2010-06-26T22:09:59Z</time>
      </trkpt>
      <trkpt lat="43.54611" lon="6.70537">
        <ele>328.51001</ele>
        <time>2010-06-26T22:10:04Z</time>
      </trkpt>
      <trkpt lat="43.54641" lon="6.7052">
        <ele>330.489044</ele>
        <time>2010-06-26T22:10:17Z</time>
      </trkpt>
      <trkpt lat="43.54729" lon="6.70462">
        <ele>332.828278</ele>
        <time>2010-06-26T22:10:47Z</time>
      </trkpt>
      <trkpt lat="43.54779" lon="6.70436">
        <ele>334.959076</ele>
        <time>2010-06-26T22:11:02Z</time>
      </trkpt>
      <trkpt lat="43.54787" lon="6.70434">
        <ele>335.359161</ele>
        <time>2010-06-26T22:11:05Z</time>
      </trkpt>
      <trkpt lat="43.5485" lon="6.70432">
        <ele>332.38739</ele>
        <time>2010-06-26T22:11:23Z</time>
      </trkpt>
      <trkpt lat="43.54871" lon="6.70408">
        <ele>331.093384</ele>
        <time>2010-06-26T22:11:28Z</time>
      </trkpt>
      <trkpt lat="43.54908" lon="6.70333">
        <ele>322.147095</ele>
        <time>2010-06-26T22:11:40Z</time>
      </trkpt>
      <trkpt lat="43.54914" lon="6.70312">
        <ele>321.006104</ele>
        <time>2010-06-26T22:11:43Z</time>
      </trkpt>
      <trkpt lat="43.5492" lon="6.70297">
        <ele>320.007507</ele>
        <time>2010-06-26T22:11:45Z</time>
      </trkpt>
      <trkpt lat="43.54938" lon="6.70241">
        <ele>319.309814</ele>
        <time>2010-06-26T22:11:52Z</time>
      </trkpt>
      <trkpt lat="43.54948" lon="6.70211">
        <ele>318.556641</ele>
        <time>2010-06-26T22:11:56Z</time>
      </trkpt>
      <trkpt lat="43.5495" lon="6.70202">
        <ele>318.602509</ele>
        <time>2010-06-26T22:11:57Z</time>
      </trkpt>
      <trkpt lat="43.54961" lon="6.70172">
        <ele>317.163635</ele>
        <time>2010-06-26T22:12:01Z</time>
      </trkpt>
      <trkpt lat="43.54963" lon="6.70164">
        <ele>316.926788</ele>
        <time>2010-06-26T22:12:02Z</time>
      </trkpt>
      <trkpt lat="43.54968" lon="6.70149">
        <ele>316.358673</ele>
        <time>2010-06-26T22:12:04Z</time>
      </trkpt>
      <trkpt lat="43.54972" lon="6.70138">
        <ele>315.601746</ele>
        <time>2010-06-26T22:12:05Z</time>
      </trkpt>
      <trkpt lat="43.55" lon="6.69999">
        <ele>307.376343</ele>
        <time>2010-06-26T22:12:08Z</time>
      </trkpt>
      <trkpt lat="43.55011" lon="6.69926">
        <ele>304.244873</ele>
        <time>2010-06-26T22:12:13Z</time>
      </trkpt>
      <trkpt lat="43.55021" lon="6.69898">
        <ele>302.186493</ele>
        <time>2010-06-26T22:12:15Z</time>
      </trkpt>
      <trkpt lat="43.55047" lon="6.69868">
        <ele>299.539215</ele>
        <time>2010-06-26T22:12:18Z</time>
      </trkpt>
      <trkpt lat="43.55098" lon="6.69872">
        <ele>297.896423</ele>
        <time>2010-06-26T22:12:23Z</time>
      </trkpt>
      <trkpt lat="43.55116" lon="6.69887">
        <ele>300.310364</ele>
        <time>2010-06-26T22:12:25Z</time>
      </trkpt>
      <trkpt lat="43.55148" lon="6.69921">
        <ele>302.02652</ele>
        <time>2010-06-26T22:12:31Z</time>
      </trkpt>
      <trkpt lat="43.55161" lon="6.69936">
        <ele>302.733215</ele>
        <time>2010-06-26T22:12:36Z</time>
      </trkpt>
      <trkpt lat="43.55163" lon="6.69939">
        <ele>302.917084</ele>
        <time>2010-06-26T22:12:41Z</time>
      </trkpt>
      <trkpt lat="43.55163" lon="6.69939">
        <ele>302.917084</ele>
        <time>2010-06-26T22:12:42Z</time>
      </trkpt>
      <trkpt lat="43.55163" lon="6.69943">
        <ele>302.759125</ele>
        <time>2010-06-26T22:12:46Z</time>
      </trkpt>
      <trkpt lat="43.55163" lon="6.69945">
        <ele>302.680969</ele>
        <time>2010-06-26T22:12:47Z</time>
      </trkpt>
      <trkpt lat="43.55163" lon="6.69947">
        <ele>302.603302</ele>
        <time>2010-06-26T22:12:59Z</time>
      </trkpt>
      <trkpt lat="43.55163" lon="6.69945">
        <ele>302.680969</ele>
        <time>2010-06-26T22:13:47Z</time>
      </trkpt>
      <trkpt lat="43.55161" lon="6.69943">
        <ele>302.475708</ele>
        <time>2010-06-26T22:13:53Z</time>
      </trkpt>
      <trkpt lat="43.55169" lon="6.69941">
        <ele>303.662323</ele>
        <time>2010-06-26T22:13:58Z</time>
      </trkpt>
      <trkpt lat="43.55178" lon="6.69962">
        <ele>304.037506</ele>
        <time>2010-06-26T22:14:06Z</time>
      </trkpt>
      <trkpt lat="43.5518" lon="6.69966">
        <ele>304.228149</ele>
        <time>2010-06-26T22:14:07Z</time>
      </trkpt>
      <trkpt lat="43.55189" lon="6.70001">
        <ele>305.887573</ele>
        <time>2010-06-26T22:14:17Z</time>
      </trkpt>
      <trkpt lat="43.55195" lon="6.70052">
        <ele>307.682617</ele>
        <time>2010-06-26T22:14:32Z</time>
      </trkpt>
      <trkpt lat="43.55195" lon="6.70061">
        <ele>307.47702</ele>
        <time>2010-06-26T22:14:34Z</time>
      </trkpt>
      <trkpt lat="43.55201" lon="6.70087">
        <ele>309.345337</ele>
        <time>2010-06-26T22:14:41Z</time>
      </trkpt>
      <trkpt lat="43.5521" lon="6.70104">
        <ele>309.207153</ele>
        <time>2010-06-26T22:14:47Z</time>
      </trkpt>
      <trkpt lat="43.55238" lon="6.70136">
        <ele>310.191986</ele>
        <time>2010-06-26T22:14:59Z</time>
      </trkpt>
      <trkpt lat="43.55255" lon="6.70147">
        <ele>312.175934</ele>
        <time>2010-06-26T22:15:05Z</time>
      </trkpt>
      <trkpt lat="43.55287" lon="6.70162">
        <ele>312.38739</ele>
        <time>2010-06-26T22:15:16Z</time>
      </trkpt>
      <trkpt lat="43.55328" lon="6.70166">
        <ele>315.485107</ele>
        <time>2010-06-26T22:15:29Z</time>
      </trkpt>
      <trkpt lat="43.55345" lon="6.7017">
        <ele>316.717743</ele>
        <time>2010-06-26T22:15:35Z</time>
      </trkpt>
      <trkpt lat="43.55362" lon="6.70181">
        <ele>318.515228</ele>
        <time>2010-06-26T22:15:41Z</time>
      </trkpt>
      <trkpt lat="43.55412" lon="6.70237">
        <ele>322.45929</ele>
        <time>2010-06-26T22:16:01Z</time>
      </trkpt>
      <trkpt lat="43.5542" lon="6.7025">
        <ele>323.854919</ele>
        <time>2010-06-26T22:16:05Z</time>
      </trkpt>
      <trkpt lat="43.55431" lon="6.70265">
        <ele>325.298859</ele>
        <time>2010-06-26T22:16:10Z</time>
      </trkpt>
      <trkpt lat="43.5545" lon="6.70282">
        <ele>326.988342</ele>
        <time>2010-06-26T22:16:17Z</time>
      </trkpt>
      <trkpt lat="43.55463" lon="6.70293">
        <ele>328.529114</ele>
        <time>2010-06-26T22:16:22Z</time>
      </trkpt>
      <trkpt lat="43.5548" lon="6.70286">
        <ele>329.543854</ele>
        <time>2010-06-26T22:16:27Z</time>
      </trkpt>
      <trkpt lat="43.55571" lon="6.70228">
        <ele>327.677338</ele>
        <time>2010-06-26T22:16:52Z</time>
      </trkpt>
      <trkpt lat="43.55648" lon="6.70183">
        <ele>333.018066</ele>
        <time>2010-06-26T22:17:17Z</time>
      </trkpt>
      <trkpt lat="43.55704" lon="6.70162">
        <ele>334.635559</ele>
        <time>2010-06-26T22:17:34Z</time>
      </trkpt>
      <trkpt lat="43.55712" lon="6.70168">
        <ele>334.71933</ele>
        <time>2010-06-26T22:17:37Z</time>
      </trkpt>
      <trkpt lat="43.55714" lon="6.7017">
        <ele>334.765778</ele>
        <time>2010-06-26T22:17:38Z</time>
      </trkpt>
      <trkpt lat="43.55725" lon="6.70179">
        <ele>334.895996</ele>
        <time>2010-06-26T22:17:42Z</time>
      </trkpt>
      <trkpt lat="43.55734" lon="6.70181">
        <ele>334.775604</ele>
        <time>2010-06-26T22:17:46Z</time>
      </trkpt>
      <trkpt lat="43.55742" lon="6.70192">
        <ele>335.068298</ele>
        <time>2010-06-26T22:17:52Z</time>
      </trkpt>
      <trkpt lat="43.55755" lon="6.70211">
        <ele>335.366028</ele>
        <time>2010-06-26T22:17:59Z</time>
      </trkpt>
      <trkpt lat="43.55785" lon="6.70278">
        <ele>336.085815</ele>
        <time>2010-06-26T22:18:17Z</time>
      </trkpt>
      <trkpt lat="43.55802" lon="6.70336">
        <ele>337.36908</ele>
        <time>2010-06-26T22:18:35Z</time>
      </trkpt>
      <trkpt lat="43.55811" lon="6.70372">
        <ele>338.281982</ele>
        <time>2010-06-26T22:18:47Z</time>
      </trkpt>
      <trkpt lat="43.55839" lon="6.70432">
        <ele>338.363312</ele>
        <time>2010-06-26T22:19:07Z</time>
      </trkpt>
      <trkpt lat="43.55856" lon="6.7046">
        <ele>337.270447</ele>
        <time>2010-06-26T22:19:16Z</time>
      </trkpt>
      <trkpt lat="43.55914" lon="6.70516">
        <ele>334.861908</ele>
        <time>2010-06-26T22:19:40Z</time>
      </trkpt>
      <trkpt lat="43.55944" lon="6.70539">
        <ele>333.140106</ele>
        <time>2010-06-26T22:19:51Z</time>
      </trkpt>
      <trkpt lat="43.55965" lon="6.70557">
        <ele>332.061523</ele>
        <time>2010-06-26T22:19:59Z</time>
      </trkpt>
      <trkpt lat="43.56019" lon="6.7061">
        <ele>331.370544</ele>
        <time>2010-06-26T22:20:25Z</time>
      </trkpt>
      <trkpt lat="43.56071" lon="6.70651">
        <ele>329.997742</ele>
        <time>2010-06-26T22:20:43Z</time>
      </trkpt>
      <trkpt lat="43.56081" lon="6.70655">
        <ele>329.160034</ele>
        <time>2010-06-26T22:20:47Z</time>
      </trkpt>
      <trkpt lat="43.56092" lon="6.70664">
        <ele>328.134308</ele>
        <time>2010-06-26T22:20:50Z</time>
      </trkpt>
      <trkpt lat="43.56103" lon="6.7067">
        <ele>327.136108</ele>
        <time>2010-06-26T22:20:53Z</time>
      </trkpt>
      <trkpt lat="43.56139" lon="6.70685">
        <ele>324.102631</ele>
        <time>2010-06-26T22:21:05Z</time>
      </trkpt>
      <trkpt lat="43.56152" lon="6.7069">
        <ele>323.409576</ele>
        <time>2010-06-26T22:21:08Z</time>
      </trkpt>
      <trkpt lat="43.56193" lon="6.70702">
        <ele>322.047485</ele>
        <time>2010-06-26T22:21:22Z</time>
      </trkpt>
      <trkpt lat="43.56208" lon="6.70717">
        <ele>321.958954</ele>
        <time>2010-06-26T22:21:28Z</time>
      </trkpt>
      <trkpt lat="43.56214" lon="6.70726">
        <ele>321.941437</ele>
        <time>2010-06-26T22:21:31Z</time>
      </trkpt>
      <trkpt lat="43.56246" lon="6.70765">
        <ele>321.11972</ele>
        <time>2010-06-26T22:21:45Z</time>
      </trkpt>
      <trkpt lat="43.56253" lon="6.70771">
        <ele>321.048401</ele>
        <time>2010-06-26T22:21:47Z</time>
      </trkpt>
      <trkpt lat="43.56266" lon="6.7078">
        <ele>320.792999</ele>
        <time>2010-06-26T22:21:52Z</time>
      </trkpt>
      <trkpt lat="43.56304" lon="6.7081">
        <ele>319.300537</ele>
        <time>2010-06-26T22:22:06Z</time>
      </trkpt>
      <trkpt lat="43.56307" lon="6.7081">
        <ele>319.203522</ele>
        <time>2010-06-26T22:22:09Z</time>
      </trkpt>
      <trkpt lat="43.56311" lon="6.70812">
        <ele>319.03833</ele>
        <time>2010-06-26T22:22:11Z</time>
      </trkpt>
      <trkpt lat="43.56326" lon="6.70823">
        <ele>318.506348</ele>
        <time>2010-06-26T22:22:18Z</time>
      </trkpt>
      <trkpt lat="43.56367" lon="6.70842">
        <ele>316.921509</ele>
        <time>2010-06-26T22:22:34Z</time>
      </trkpt>
      <trkpt lat="43.56373" lon="6.70851">
        <ele>316.750732</ele>
        <time>2010-06-26T22:22:37Z</time>
      </trkpt>
      <trkpt lat="43.5638" lon="6.7087">
        <ele>316.485596</ele>
        <time>2010-06-26T22:22:43Z</time>
      </trkpt>
      <trkpt lat="43.56384" lon="6.70876">
        <ele>316.18512</ele>
        <time>2010-06-26T22:22:48Z</time>
      </trkpt>
      <trkpt lat="43.5639" lon="6.70878">
        <ele>315.791687</ele>
        <time>2010-06-26T22:22:51Z</time>
      </trkpt>
      <trkpt lat="43.56401" lon="6.70885">
        <ele>315.226898</ele>
        <time>2010-06-26T22:22:58Z</time>
      </trkpt>
      <trkpt lat="43.56407" lon="6.70898">
        <ele>314.961914</ele>
        <time>2010-06-26T22:23:04Z</time>
      </trkpt>
      <trkpt lat="43.56416" lon="6.70915">
        <ele>314.897278</ele>
        <time>2010-06-26T22:23:09Z</time>
      </trkpt>
      <trkpt lat="43.56431" lon="6.70958">
        <ele>316.499817</ele>
        <time>2010-06-26T22:23:23Z</time>
      </trkpt>
      <trkpt lat="43.5644" lon="6.70973">
        <ele>317.692963</ele>
        <time>2010-06-26T22:23:28Z</time>
      </trkpt>
      <trkpt lat="43.56463" lon="6.70992">
        <ele>320.094269</ele>
        <time>2010-06-26T22:23:40Z</time>
      </trkpt>
      <trkpt lat="43.56487" lon="6.71022">
        <ele>320.639404</ele>
        <time>2010-06-26T22:23:52Z</time>
      </trkpt>
      <trkpt lat="43.56502" lon="6.71057">
        <ele>319.767761</ele>
        <time>2010-06-26T22:24:07Z</time>
      </trkpt>
      <trkpt lat="43.56506" lon="6.71059">
        <ele>319.54895</ele>
        <time>2010-06-26T22:24:10Z</time>
      </trkpt>
      <trkpt lat="43.56508" lon="6.71063">
        <ele>319.392181</ele>
        <time>2010-06-26T22:24:13Z</time>
      </trkpt>
      <trkpt lat="43.56515" lon="6.71072">
        <ele>318.952362</ele>
        <time>2010-06-26T22:24:17Z</time>
      </trkpt>
      <trkpt lat="43.56521" lon="6.71078">
        <ele>318.518555</ele>
        <time>2010-06-26T22:24:22Z</time>
      </trkpt>
      <trkpt lat="43.5654" lon="6.71108">
        <ele>317.487366</ele>
        <time>2010-06-26T22:24:40Z</time>
      </trkpt>
      <trkpt lat="43.56568" lon="6.71136">
        <ele>316.929413</ele>
        <time>2010-06-26T22:24:52Z</time>
      </trkpt>
      <trkpt lat="43.56601" lon="6.71172">
        <ele>315.982971</ele>
        <time>2010-06-26T22:25:02Z</time>
      </trkpt>
      <trkpt lat="43.56631" lon="6.71205">
        <ele>315.451477</ele>
        <time>2010-06-26T22:25:12Z</time>
      </trkpt>
      <trkpt lat="43.56708" lon="6.71308">
        <ele>314.795807</ele>
        <time>2010-06-26T22:25:43Z</time>
      </trkpt>
      <trkpt lat="43.5674" lon="6.71361">
        <ele>314.323151</ele>
        <time>2010-06-26T22:25:59Z</time>
      </trkpt>
      <trkpt lat="43.56776" lon="6.714">
        <ele>312.226837</ele>
        <time>2010-06-26T22:26:13Z</time>
      </trkpt>
      <trkpt lat="43.56785" lon="6.71413">
        <ele>311.212891</ele>
        <time>2010-06-26T22:26:17Z</time>
      </trkpt>
      <trkpt lat="43.568" lon="6.71434">
        <ele>309.856354</ele>
        <time>2010-06-26T22:26:23Z</time>
      </trkpt>
      <trkpt lat="43.5683" lon="6.71507">
        <ele>308.089111</ele>
        <time>2010-06-26T22:26:41Z</time>
      </trkpt>
      <trkpt lat="43.56837" lon="6.71526">
        <ele>307.785095</ele>
        <time>2010-06-26T22:26:47Z</time>
      </trkpt>
      <trkpt lat="43.56841" lon="6.71544">
        <ele>307.513092</ele>
        <time>2010-06-26T22:26:52Z</time>
      </trkpt>
      <trkpt lat="43.56832" lon="6.71535">
        <ele>307.641113</ele>
        <time>2010-06-26T22:26:59Z</time>
      </trkpt>
      <trkpt lat="43.56832" lon="6.71531">
        <ele>307.710449</ele>
        <time>2010-06-26T22:27:00Z</time>
      </trkpt>
      <trkpt lat="43.56828" lon="6.71518">
        <ele>307.913116</ele>
        <time>2010-06-26T22:27:03Z</time>
      </trkpt>
      <trkpt lat="43.56824" lon="6.71505">
        <ele>308.115784</ele>
        <time>2010-06-26T22:27:06Z</time>
      </trkpt>
      <trkpt lat="43.56804" lon="6.71453">
        <ele>309.143311</ele>
        <time>2010-06-26T22:27:17Z</time>
      </trkpt>
      <trkpt lat="43.56798" lon="6.71441">
        <ele>309.710571</ele>
        <time>2010-06-26T22:27:20Z</time>
      </trkpt>
      <trkpt lat="43.5674" lon="6.71374">
        <ele>314.507935</ele>
        <time>2010-06-26T22:27:41Z</time>
      </trkpt>
      <trkpt lat="43.56727" lon="6.71376">
        <ele>315.126801</ele>
        <time>2010-06-26T22:27:53Z</time>
      </trkpt>
      <trkpt lat="43.56725" lon="6.71376">
        <ele>315.224792</ele>
        <time>2010-06-26T22:27:54Z</time>
      </trkpt>
      <trkpt lat="43.56723" lon="6.71385">
        <ele>315.229675</ele>
        <time>2010-06-26T22:27:59Z</time>
      </trkpt>
      <trkpt lat="43.56719" lon="6.71391">
        <ele>315.153625</ele>
        <time>2010-06-26T22:28:04Z</time>
      </trkpt>
      <trkpt lat="43.56699" lon="6.71415">
        <ele>314.80835</ele>
        <time>2010-06-26T22:28:17Z</time>
      </trkpt>
      <trkpt lat="43.56695" lon="6.71426">
        <ele>314.43457</ele>
        <time>2010-06-26T22:28:22Z</time>
      </trkpt>
      <trkpt lat="43.56693" lon="6.71447">
        <ele>312.807251</ele>
        <time>2010-06-26T22:28:29Z</time>
      </trkpt>
      <trkpt lat="43.56697" lon="6.7149">
        <ele>306.48114</ele>
        <time>2010-06-26T22:28:41Z</time>
      </trkpt>
      <trkpt lat="43.56697" lon="6.71514">
        <ele>303.694519</ele>
        <time>2010-06-26T22:28:47Z</time>
      </trkpt>
      <trkpt lat="43.56695" lon="6.71531">
        <ele>302.215851</ele>
        <time>2010-06-26T22:28:52Z</time>
      </trkpt>
      <trkpt lat="43.5668" lon="6.71552">
        <ele>300.055542</ele>
        <time>2010-06-26T22:28:58Z</time>
      </trkpt>
      <trkpt lat="43.56667" lon="6.71569">
        <ele>299.318604</ele>
        <time>2010-06-26T22:29:03Z</time>
      </trkpt>
      <trkpt lat="43.56661" lon="6.71576">
        <ele>299.445862</ele>
        <time>2010-06-26T22:29:05Z</time>
      </trkpt>
      <trkpt lat="43.56654" lon="6.7158">
        <ele>299.514954</ele>
        <time>2010-06-26T22:29:08Z</time>
      </trkpt>
      <trkpt lat="43.56646" lon="6.71591">
        <ele>299.503754</ele>
        <time>2010-06-26T22:29:12Z</time>
      </trkpt>
      <trkpt lat="43.56639" lon="6.71604">
        <ele>299.354248</ele>
        <time>2010-06-26T22:29:16Z</time>
      </trkpt>
      <trkpt lat="43.56628" lon="6.71619">
        <ele>298.895447</ele>
        <time>2010-06-26T22:29:22Z</time>
      </trkpt>
      <trkpt lat="43.56601" lon="6.71636">
        <ele>298.189789</ele>
        <time>2010-06-26T22:29:35Z</time>
      </trkpt>
      <trkpt lat="43.56568" lon="6.71657">
        <ele>295.330139</ele>
        <time>2010-06-26T22:29:47Z</time>
      </trkpt>
      <trkpt lat="43.56553" lon="6.71664">
        <ele>292.188995</ele>
        <time>2010-06-26T22:29:51Z</time>
      </trkpt>
      <trkpt lat="43.56528" lon="6.71679">
        <ele>287.020721</ele>
        <time>2010-06-26T22:29:59Z</time>
      </trkpt>
      <trkpt lat="43.56508" lon="6.71694">
        <ele>285.275635</ele>
        <time>2010-06-26T22:30:05Z</time>
      </trkpt>
      <trkpt lat="43.56506" lon="6.71696">
        <ele>285.041534</ele>
        <time>2010-06-26T22:30:06Z</time>
      </trkpt>
      <trkpt lat="43.56489" lon="6.71713">
        <ele>283.40332</ele>
        <time>2010-06-26T22:30:13Z</time>
      </trkpt>
      <trkpt lat="43.56478" lon="6.71722">
        <ele>282.881989</ele>
        <time>2010-06-26T22:30:17Z</time>
      </trkpt>
      <trkpt lat="43.5647" lon="6.71722">
        <ele>282.630432</ele>
        <time>2010-06-26T22:30:20Z</time>
      </trkpt>
      <trkpt lat="43.56463" lon="6.71724">
        <ele>282.131256</ele>
        <time>2010-06-26T22:30:22Z</time>
      </trkpt>
      <trkpt lat="43.56442" lon="6.71735">
        <ele>281.011414</ele>
        <time>2010-06-26T22:30:28Z</time>
      </trkpt>
      <trkpt lat="43.56422" lon="6.71754">
        <ele>284.793365</ele>
        <time>2010-06-26T22:30:34Z</time>
      </trkpt>
      <trkpt lat="43.56403" lon="6.71769">
        <ele>285.399048</ele>
        <time>2010-06-26T22:30:40Z</time>
      </trkpt>
      <trkpt lat="43.56364" lon="6.71765">
        <ele>279.739899</ele>
        <time>2010-06-26T22:30:50Z</time>
      </trkpt>
      <trkpt lat="43.56354" lon="6.71762">
        <ele>278.097137</ele>
        <time>2010-06-26T22:30:53Z</time>
      </trkpt>
      <trkpt lat="43.56337" lon="6.71767">
        <ele>276.081848</ele>
        <time>2010-06-26T22:30:58Z</time>
      </trkpt>
      <trkpt lat="43.56309" lon="6.71782">
        <ele>270.862305</ele>
        <time>2010-06-26T22:31:06Z</time>
      </trkpt>
      <trkpt lat="43.5627" lon="6.71805">
        <ele>269.911591</ele>
        <time>2010-06-26T22:31:17Z</time>
      </trkpt>
      <trkpt lat="43.56231" lon="6.7184">
        <ele>261.200226</ele>
        <time>2010-06-26T22:31:29Z</time>
      </trkpt>
      <trkpt lat="43.56197" lon="6.71872">
        <ele>259.477203</ele>
        <time>2010-06-26T22:31:40Z</time>
      </trkpt>
      <trkpt lat="43.56169" lon="6.71919">
        <ele>253.780014</ele>
        <time>2010-06-26T22:31:51Z</time>
      </trkpt>
      <trkpt lat="43.56165" lon="6.7193">
        <ele>254.004059</ele>
        <time>2010-06-26T22:31:53Z</time>
      </trkpt>
      <trkpt lat="43.56137" lon="6.71964">
        <ele>250.461075</ele>
        <time>2010-06-26T22:32:03Z</time>
      </trkpt>
      <trkpt lat="43.56101" lon="6.71996">
        <ele>244.758041</ele>
        <time>2010-06-26T22:32:15Z</time>
      </trkpt>
      <trkpt lat="43.56098" lon="6.71999">
        <ele>244.433899</ele>
        <time>2010-06-26T22:32:16Z</time>
      </trkpt>
      <trkpt lat="43.56103" lon="6.72014">
        <ele>244.606735</ele>
        <time>2010-06-26T22:32:19Z</time>
      </trkpt>
      <trkpt lat="43.56103" lon="6.72018">
        <ele>245.392761</ele>
        <time>2010-06-26T22:32:20Z</time>
      </trkpt>
      <trkpt lat="43.56094" lon="6.72037">
        <ele>248.487289</ele>
        <time>2010-06-26T22:32:28Z</time>
      </trkpt>
      <trkpt lat="43.5609" lon="6.72035">
        <ele>247.634689</ele>
        <time>2010-06-26T22:32:29Z</time>
      </trkpt>
      <trkpt lat="43.56079" lon="6.72035">
        <ele>246.642105</ele>
        <time>2010-06-26T22:32:32Z</time>
      </trkpt>
      <trkpt lat="43.56068" lon="6.72037">
        <ele>246.281769</ele>
        <time>2010-06-26T22:32:35Z</time>
      </trkpt>
      <trkpt lat="43.5604" lon="6.72044">
        <ele>244.498474</ele>
        <time>2010-06-26T22:32:43Z</time>
      </trkpt>
      <trkpt lat="43.56" lon="6.72054">
        <ele>242.160309</ele>
        <time>2010-06-26T22:32:54Z</time>
      </trkpt>
      <trkpt lat="43.55968" lon="6.72067">
        <ele>238.933899</ele>
        <time>2010-06-26T22:33:05Z</time>
      </trkpt>
      <trkpt lat="43.55968" lon="6.72069">
        <ele>239.288849</ele>
        <time>2010-06-26T22:33:09Z</time>
      </trkpt>
      <trkpt lat="43.5597" lon="6.72071">
        <ele>239.701736</ele>
        <time>2010-06-26T22:33:34Z</time>
      </trkpt>
      <trkpt lat="43.5597" lon="6.72076">
        <ele>240.443359</ele>
        <time>2010-06-26T22:34:04Z</time>
      </trkpt>
      <trkpt lat="43.5597" lon="6.7208">
        <ele>241.18927</ele>
        <time>2010-06-26T22:35:00Z</time>
      </trkpt>
      <trkpt lat="43.55965" lon="6.7208">
        <ele>240.968018</ele>
        <time>2010-06-26T22:35:02Z</time>
      </trkpt>
      <trkpt lat="43.55957" lon="6.72084">
        <ele>241.093185</ele>
        <time>2010-06-26T22:35:06Z</time>
      </trkpt>
      <trkpt lat="43.55953" lon="6.72084">
        <ele>240.794846</ele>
        <time>2010-06-26T22:35:08Z</time>
      </trkpt>
      <trkpt lat="43.55944" lon="6.72086">
        <ele>240.392319</ele>
        <time>2010-06-26T22:35:11Z</time>
      </trkpt>
      <trkpt lat="43.55925" lon="6.72089">
        <ele>239.396927</ele>
        <time>2010-06-26T22:35:17Z</time>
      </trkpt>
      <trkpt lat="43.55907" lon="6.72099">
        <ele>238.641754</ele>
        <time>2010-06-26T22:35:23Z</time>
      </trkpt>
      <trkpt lat="43.55895" lon="6.7211">
        <ele>237.489517</ele>
        <time>2010-06-26T22:35:28Z</time>
      </trkpt>
      <trkpt lat="43.55892" lon="6.72123">
        <ele>237.183838</ele>
        <time>2010-06-26T22:35:31Z</time>
      </trkpt>
      <trkpt lat="43.55871" lon="6.72187">
        <ele>237.885437</ele>
        <time>2010-06-26T22:35:47Z</time>
      </trkpt>
      <trkpt lat="43.55871" lon="6.72192">
        <ele>238.416367</ele>
        <time>2010-06-26T22:35:48Z</time>
      </trkpt>
      <trkpt lat="43.55862" lon="6.72211">
        <ele>239.738358</ele>
        <time>2010-06-26T22:35:53Z</time>
      </trkpt>
      <trkpt lat="43.55841" lon="6.72252">
        <ele>239.995041</ele>
        <time>2010-06-26T22:36:04Z</time>
      </trkpt>
      <trkpt lat="43.55813" lon="6.72277">
        <ele>240.572327</ele>
        <time>2010-06-26T22:36:16Z</time>
      </trkpt>
      <trkpt lat="43.55781" lon="6.72303">
        <ele>237.06575</ele>
        <time>2010-06-26T22:36:32Z</time>
      </trkpt>
      <trkpt lat="43.55762" lon="6.72314">
        <ele>233.891953</ele>
        <time>2010-06-26T22:36:41Z</time>
      </trkpt>
      <trkpt lat="43.55734" lon="6.72323">
        <ele>229.199127</ele>
        <time>2010-06-26T22:36:52Z</time>
      </trkpt>
      <trkpt lat="43.55721" lon="6.72333">
        <ele>227.20015</ele>
        <time>2010-06-26T22:36:58Z</time>
      </trkpt>
      <trkpt lat="43.55708" lon="6.72353">
        <ele>222.013824</ele>
        <time>2010-06-26T22:37:07Z</time>
      </trkpt>
      <trkpt lat="43.55693" lon="6.72374">
        <ele>224.215164</ele>
        <time>2010-06-26T22:37:21Z</time>
      </trkpt>
      <trkpt lat="43.55641" lon="6.72398">
        <ele>224.144058</ele>
        <time>2010-06-26T22:37:46Z</time>
      </trkpt>
      <trkpt lat="43.55633" lon="6.72385">
        <ele>222.078918</ele>
        <time>2010-06-26T22:37:49Z</time>
      </trkpt>
      <trkpt lat="43.55626" lon="6.72378">
        <ele>220.693039</ele>
        <time>2010-06-26T22:37:52Z</time>
      </trkpt>
      <trkpt lat="43.5562" lon="6.72376">
        <ele>219.833603</ele>
        <time>2010-06-26T22:37:54Z</time>
      </trkpt>
      <trkpt lat="43.55609" lon="6.7237">
        <ele>217.912292</ele>
        <time>2010-06-26T22:37:58Z</time>
      </trkpt>
      <trkpt lat="43.55577" lon="6.7235">
        <ele>215.276276</ele>
        <time>2010-06-26T22:38:10Z</time>
      </trkpt>
      <trkpt lat="43.55568" lon="6.72348">
        <ele>215.246689</ele>
        <time>2010-06-26T22:38:13Z</time>
      </trkpt>
      <trkpt lat="43.55519" lon="6.72355">
        <ele>219.460266</ele>
        <time>2010-06-26T22:38:37Z</time>
      </trkpt>
      <trkpt lat="43.55483" lon="6.72376">
        <ele>216.128632</ele>
        <time>2010-06-26T22:38:58Z</time>
      </trkpt>
      <trkpt lat="43.55435" lon="6.72419">
        <ele>206.508224</ele>
        <time>2010-06-26T22:39:26Z</time>
      </trkpt>
      <trkpt lat="43.55433" lon="6.72421">
        <ele>206.066345</ele>
        <time>2010-06-26T22:39:28Z</time>
      </trkpt>
      <trkpt lat="43.55427" lon="6.72423">
        <ele>205.422394</ele>
        <time>2010-06-26T22:39:34Z</time>
      </trkpt>
      <trkpt lat="43.55422" lon="6.72421">
        <ele>205.658569</ele>
        <time>2010-06-26T22:39:40Z</time>
      </trkpt>
      <trkpt lat="43.55414" lon="6.72423">
        <ele>205.112061</ele>
        <time>2010-06-26T22:39:48Z</time>
      </trkpt>
      <trkpt lat="43.55416" lon="6.72426">
        <ele>204.827316</ele>
        <time>2010-06-26T22:40:42Z</time>
      </trkpt>
      <trkpt lat="43.55416" lon="6.72426">
        <ele>204.827316</ele>
        <time>2010-06-26T22:41:47Z</time>
      </trkpt>
      <trkpt lat="43.55416" lon="6.72426">
        <ele>204.827316</ele>
        <time>2010-06-26T22:41:53Z</time>
      </trkpt>
      <trkpt lat="43.55405" lon="6.72423">
        <ele>204.910233</ele>
        <time>2010-06-26T22:41:59Z</time>
      </trkpt>
      <trkpt lat="43.55395" lon="6.72419">
        <ele>205.301971</ele>
        <time>2010-06-26T22:42:05Z</time>
      </trkpt>
      <trkpt lat="43.55367" lon="6.72419">
        <ele>204.617081</ele>
        <time>2010-06-26T22:42:17Z</time>
      </trkpt>
      <trkpt lat="43.55358" lon="6.72419">
        <ele>204.421631</ele>
        <time>2010-06-26T22:42:21Z</time>
      </trkpt>
      <trkpt lat="43.55354" lon="6.72421">
        <ele>204.087357</ele>
        <time>2010-06-26T22:42:23Z</time>
      </trkpt>
      <trkpt lat="43.55343" lon="6.72426">
        <ele>203.458527</ele>
        <time>2010-06-26T22:42:28Z</time>
      </trkpt>
      <trkpt lat="43.55341" lon="6.72419">
        <ele>204.067307</ele>
        <time>2010-06-26T22:42:31Z</time>
      </trkpt>
      <trkpt lat="43.55341" lon="6.72417">
        <ele>204.278351</ele>
        <time>2010-06-26T22:42:32Z</time>
      </trkpt>
      <trkpt lat="43.55341" lon="6.72408">
        <ele>205.118515</ele>
        <time>2010-06-26T22:42:35Z</time>
      </trkpt>
      <trkpt lat="43.55341" lon="6.72406">
        <ele>205.32756</ele>
        <time>2010-06-26T22:42:36Z</time>
      </trkpt>
      <trkpt lat="43.55347" lon="6.72395">
        <ele>206.656982</ele>
        <time>2010-06-26T22:42:41Z</time>
      </trkpt>
      <trkpt lat="43.55354" lon="6.7238">
        <ele>208.433395</ele>
        <time>2010-06-26T22:42:47Z</time>
      </trkpt>
      <trkpt lat="43.55362" lon="6.72372">
        <ele>209.984314</ele>
        <time>2010-06-26T22:42:52Z</time>
      </trkpt>
      <trkpt lat="43.55384" lon="6.72361">
        <ele>213.681351</ele>
        <time>2010-06-26T22:43:05Z</time>
      </trkpt>
      <trkpt lat="43.55392" lon="6.72355">
        <ele>215.399948</ele>
        <time>2010-06-26T22:43:10Z</time>
      </trkpt>
      <trkpt lat="43.55399" lon="6.72342">
        <ele>217.963974</ele>
        <time>2010-06-26T22:43:16Z</time>
      </trkpt>
      <trkpt lat="43.55418" lon="6.72327">
        <ele>221.337204</ele>
        <time>2010-06-26T22:43:28Z</time>
      </trkpt>
      <trkpt lat="43.55416" lon="6.72314">
        <ele>221.811188</ele>
        <time>2010-06-26T22:43:34Z</time>
      </trkpt>
      <trkpt lat="43.55416" lon="6.72312">
        <ele>221.916031</ele>
        <time>2010-06-26T22:43:35Z</time>
      </trkpt>
      <trkpt lat="43.55414" lon="6.72303">
        <ele>222.136246</ele>
        <time>2010-06-26T22:43:38Z</time>
      </trkpt>
      <trkpt lat="43.55412" lon="6.72299">
        <ele>222.13385</ele>
        <time>2010-06-26T22:43:40Z</time>
      </trkpt>
      <trkpt lat="43.55407" lon="6.72292">
        <ele>221.998825</ele>
        <time>2010-06-26T22:43:46Z</time>
      </trkpt>
      <trkpt lat="43.55395" lon="6.72292">
        <ele>220.741074</ele>
        <time>2010-06-26T22:43:51Z</time>
      </trkpt>
      <trkpt lat="43.5538" lon="6.72292">
        <ele>218.218933</ele>
        <time>2010-06-26T22:43:56Z</time>
      </trkpt>
      <trkpt lat="43.55371" lon="6.72295">
        <ele>216.427765</ele>
        <time>2010-06-26T22:43:59Z</time>
      </trkpt>
      <trkpt lat="43.55354" lon="6.72301">
        <ele>212.950134</ele>
        <time>2010-06-26T22:44:05Z</time>
      </trkpt>
      <trkpt lat="43.55322" lon="6.72318">
        <ele>208.013824</ele>
        <time>2010-06-26T22:44:16Z</time>
      </trkpt>
      <trkpt lat="43.55307" lon="6.7234">
        <ele>205.828674</ele>
        <time>2010-06-26T22:44:24Z</time>
      </trkpt>
      <trkpt lat="43.55298" lon="6.72348">
        <ele>204.709549</ele>
        <time>2010-06-26T22:44:28Z</time>
      </trkpt>
      <trkpt lat="43.55292" lon="6.72355">
        <ele>204.202927</ele>
        <time>2010-06-26T22:44:31Z</time>
      </trkpt>
      <trkpt lat="43.55287" lon="6.72359">
        <ele>203.916138</ele>
        <time>2010-06-26T22:44:33Z</time>
      </trkpt>
      <trkpt lat="43.55283" lon="6.72363">
        <ele>203.643005</ele>
        <time>2010-06-26T22:44:35Z</time>
      </trkpt>
      <trkpt lat="43.55274" lon="6.72372">
        <ele>203.137726</ele>
        <time>2010-06-26T22:44:40Z</time>
      </trkpt>
      <trkpt lat="43.55262" lon="6.72402">
        <ele>201.813324</ele>
        <time>2010-06-26T22:44:50Z</time>
      </trkpt>
      <trkpt lat="43.55238" lon="6.72456">
        <ele>199.365768</ele>
        <time>2010-06-26T22:45:08Z</time>
      </trkpt>
      <trkpt lat="43.55236" lon="6.72464">
        <ele>199.043106</ele>
        <time>2010-06-26T22:45:11Z</time>
      </trkpt>
      <trkpt lat="43.55229" lon="6.72479">
        <ele>198.412216</ele>
        <time>2010-06-26T22:45:16Z</time>
      </trkpt>
      <trkpt lat="43.55217" lon="6.72492">
        <ele>197.689713</ele>
        <time>2010-06-26T22:45:23Z</time>
      </trkpt>
      <trkpt lat="43.55208" lon="6.72498">
        <ele>197.275467</ele>
        <time>2010-06-26T22:45:27Z</time>
      </trkpt>
      <trkpt lat="43.55206" lon="6.72498">
        <ele>197.222458</ele>
        <time>2010-06-26T22:45:28Z</time>
      </trkpt>
      <trkpt lat="43.55193" lon="6.72503">
        <ele>196.168747</ele>
        <time>2010-06-26T22:45:34Z</time>
      </trkpt>
      <trkpt lat="43.55182" lon="6.72513">
        <ele>194.402084</ele>
        <time>2010-06-26T22:45:39Z</time>
      </trkpt>
      <trkpt lat="43.5518" lon="6.72513">
        <ele>194.209518</ele>
        <time>2010-06-26T22:45:40Z</time>
      </trkpt>
      <trkpt lat="43.55174" lon="6.72513">
        <ele>193.633347</ele>
        <time>2010-06-26T22:45:43Z</time>
      </trkpt>
      <trkpt lat="43.55171" lon="6.72516">
        <ele>193.297867</ele>
        <time>2010-06-26T22:45:44Z</time>
      </trkpt>
      <trkpt lat="43.55169" lon="6.72516">
        <ele>193.108215</ele>
        <time>2010-06-26T22:45:46Z</time>
      </trkpt>
      <trkpt lat="43.55141" lon="6.72509">
        <ele>191.08931</ele>
        <time>2010-06-26T22:45:59Z</time>
      </trkpt>
      <trkpt lat="43.55116" lon="6.72516">
        <ele>188.741455</ele>
        <time>2010-06-26T22:46:11Z</time>
      </trkpt>
      <trkpt lat="43.55107" lon="6.72522">
        <ele>188.105789</ele>
        <time>2010-06-26T22:46:16Z</time>
      </trkpt>
      <trkpt lat="43.55103" lon="6.72522">
        <ele>188.095139</ele>
        <time>2010-06-26T22:46:18Z</time>
      </trkpt>
      <trkpt lat="43.55094" lon="6.72526">
        <ele>187.93512</ele>
        <time>2010-06-26T22:46:23Z</time>
      </trkpt>
      <trkpt lat="43.55083" lon="6.72533">
        <ele>187.700424</ele>
        <time>2010-06-26T22:46:29Z</time>
      </trkpt>
      <trkpt lat="43.55075" lon="6.72539">
        <ele>187.471054</ele>
        <time>2010-06-26T22:46:34Z</time>
      </trkpt>
      <trkpt lat="43.55047" lon="6.72535">
        <ele>188.877075</ele>
        <time>2010-06-26T22:46:47Z</time>
      </trkpt>
      <trkpt lat="43.55038" lon="6.72529">
        <ele>189.634827</ele>
        <time>2010-06-26T22:46:52Z</time>
      </trkpt>
      <trkpt lat="43.55034" lon="6.72516">
        <ele>190.110687</ele>
        <time>2010-06-26T22:46:56Z</time>
      </trkpt>
      <trkpt lat="43.5503" lon="6.72501">
        <ele>190.518539</ele>
        <time>2010-06-26T22:47:01Z</time>
      </trkpt>
      <trkpt lat="43.55028" lon="6.72494">
        <ele>190.676468</ele>
        <time>2010-06-26T22:47:03Z</time>
      </trkpt>
      <trkpt lat="43.55028" lon="6.72479">
        <ele>191.027313</ele>
        <time>2010-06-26T22:47:08Z</time>
      </trkpt>
      <trkpt lat="43.5503" lon="6.72471">
        <ele>191.230194</ele>
        <time>2010-06-26T22:47:11Z</time>
      </trkpt>
      <trkpt lat="43.55021" lon="6.72453">
        <ele>192.222458</ele>
        <time>2010-06-26T22:47:20Z</time>
      </trkpt>
      <trkpt lat="43.54998" lon="6.72441">
        <ele>194.3246</ele>
        <time>2010-06-26T22:47:34Z</time>
      </trkpt>
      <trkpt lat="43.54987" lon="6.72441">
        <ele>195.087082</ele>
        <time>2010-06-26T22:47:40Z</time>
      </trkpt>
      <trkpt lat="43.54993" lon="6.7246">
        <ele>194.149261</ele>
        <time>2010-06-26T22:47:46Z</time>
      </trkpt>
      <trkpt lat="43.54998" lon="6.72464">
        <ele>193.700714</ele>
        <time>2010-06-26T22:47:48Z</time>
      </trkpt>
      <trkpt lat="43.55" lon="6.72473">
        <ele>193.293365</ele>
        <time>2010-06-26T22:47:51Z</time>
      </trkpt>
      <trkpt lat="43.55011" lon="6.72513">
        <ele>191.957474</ele>
        <time>2010-06-26T22:48:06Z</time>
      </trkpt>
      <trkpt lat="43.55011" lon="6.72516">
        <ele>191.956314</ele>
        <time>2010-06-26T22:48:07Z</time>
      </trkpt>
      <trkpt lat="43.55017" lon="6.72541">
        <ele>191.233795</ele>
        <time>2010-06-26T22:48:16Z</time>
      </trkpt>
      <trkpt lat="43.55015" lon="6.72554">
        <ele>191.665665</ele>
        <time>2010-06-26T22:48:22Z</time>
      </trkpt>
      <trkpt lat="43.55" lon="6.72552">
        <ele>193.295929</ele>
        <time>2010-06-26T22:48:29Z</time>
      </trkpt>
      <trkpt lat="43.54998" lon="6.72552">
        <ele>193.542297</ele>
        <time>2010-06-26T22:48:31Z</time>
      </trkpt>
      <trkpt lat="43.5497" lon="6.72535">
        <ele>196.285355</ele>
        <time>2010-06-26T22:48:47Z</time>
      </trkpt>
      <trkpt lat="43.54961" lon="6.72535">
        <ele>197.15918</ele>
        <time>2010-06-26T22:48:52Z</time>
      </trkpt>
      <trkpt lat="43.54955" lon="6.72533">
        <ele>197.751053</ele>
        <time>2010-06-26T22:48:56Z</time>
      </trkpt>
      <trkpt lat="43.5495" lon="6.72533">
        <ele>198.187225</ele>
        <time>2010-06-26T22:48:58Z</time>
      </trkpt>
      <trkpt lat="43.54944" lon="6.72535">
        <ele>198.943405</ele>
        <time>2010-06-26T22:49:01Z</time>
      </trkpt>
      <trkpt lat="43.5494" lon="6.72541">
        <ele>199.712967</ele>
        <time>2010-06-26T22:49:04Z</time>
      </trkpt>
      <trkpt lat="43.54929" lon="6.72563">
        <ele>200.611298</ele>
        <time>2010-06-26T22:49:14Z</time>
      </trkpt>
      <trkpt lat="43.54927" lon="6.72565">
        <ele>200.677902</ele>
        <time>2010-06-26T22:49:15Z</time>
      </trkpt>
      <trkpt lat="43.54925" lon="6.72571">
        <ele>200.662491</ele>
        <time>2010-06-26T22:49:17Z</time>
      </trkpt>
      <trkpt lat="43.54923" lon="6.72582">
        <ele>200.63472</ele>
        <time>2010-06-26T22:49:22Z</time>
      </trkpt>
      <trkpt lat="43.54923" lon="6.72595">
        <ele>200.477493</ele>
        <time>2010-06-26T22:49:28Z</time>
      </trkpt>
      <trkpt lat="43.54933" lon="6.72623">
        <ele>202.078125</ele>
        <time>2010-06-26T22:49:40Z</time>
      </trkpt>
      <trkpt lat="43.54931" lon="6.7264">
        <ele>204.294617</ele>
        <time>2010-06-26T22:49:47Z</time>
      </trkpt>
      <trkpt lat="43.54929" lon="6.72649">
        <ele>205.484604</ele>
        <time>2010-06-26T22:49:54Z</time>
      </trkpt>
      <trkpt lat="43.54931" lon="6.72649">
        <ele>205.348267</ele>
        <time>2010-06-26T22:51:11Z</time>
      </trkpt>
      <trkpt lat="43.54929" lon="6.72649">
        <ele>205.484604</ele>
        <time>2010-06-26T22:51:16Z</time>
      </trkpt>
      <trkpt lat="43.54931" lon="6.72644">
        <ele>204.821976</ele>
        <time>2010-06-26T22:51:19Z</time>
      </trkpt>
      <trkpt lat="43.54931" lon="6.72642">
        <ele>204.558441</ele>
        <time>2010-06-26T22:51:20Z</time>
      </trkpt>
      <trkpt lat="43.54942" lon="6.72647">
        <ele>204.427673</ele>
        <time>2010-06-26T22:51:30Z</time>
      </trkpt>
      <trkpt lat="43.54944" lon="6.72655">
        <ele>205.268997</ele>
        <time>2010-06-26T22:51:34Z</time>
      </trkpt>
      <trkpt lat="43.5494" lon="6.72653">
        <ele>205.306839</ele>
        <time>2010-06-26T22:51:38Z</time>
      </trkpt>
      <trkpt lat="43.54938" lon="6.72651">
        <ele>205.19516</ele>
        <time>2010-06-26T22:51:48Z</time>
      </trkpt>
      <trkpt lat="43.5494" lon="6.7264">
        <ele>203.807083</ele>
        <time>2010-06-26T22:51:53Z</time>
      </trkpt>
      <trkpt lat="43.54942" lon="6.72638">
        <ele>203.438873</ele>
        <time>2010-06-26T22:51:55Z</time>
      </trkpt>
      <trkpt lat="43.54946" lon="6.72644">
        <ele>203.927994</ele>
        <time>2010-06-26T22:51:59Z</time>
      </trkpt>
      <trkpt lat="43.5495" lon="6.72653">
        <ele>204.609985</ele>
        <time>2010-06-26T22:52:04Z</time>
      </trkpt>
      <trkpt lat="43.54948" lon="6.72653">
        <ele>204.748337</ele>
        <time>2010-06-26T22:52:07Z</time>
      </trkpt>
      <trkpt lat="43.54942" lon="6.72653">
        <ele>205.166458</ele>
        <time>2010-06-26T22:52:12Z</time>
      </trkpt>
      <trkpt lat="43.54942" lon="6.72653">
        <ele>205.166458</ele>
        <time>2010-06-26T22:52:13Z</time>
      </trkpt>
      <trkpt lat="43.54938" lon="6.72649">
        <ele>204.942307</ele>
        <time>2010-06-26T22:52:19Z</time>
      </trkpt>
      <trkpt lat="43.54938" lon="6.72649">
        <ele>204.942307</ele>
        <time>2010-06-26T22:52:21Z</time>
      </trkpt>
      <trkpt lat="43.54938" lon="6.72647">
        <ele>204.689178</ele>
        <time>2010-06-26T22:52:47Z</time>
      </trkpt>
      <trkpt lat="43.54938" lon="6.72644">
        <ele>204.435791</ele>
        <time>2010-06-26T22:52:52Z</time>
      </trkpt>
      <trkpt lat="43.54942" lon="6.72644">
        <ele>204.180878</ele>
        <time>2010-06-26T22:52:58Z</time>
      </trkpt>
      <trkpt lat="43.54944" lon="6.72651">
        <ele>204.783875</ele>
        <time>2010-06-26T22:53:04Z</time>
      </trkpt>
      <trkpt lat="43.5495" lon="6.72657">
        <ele>205.074783</ele>
        <time>2010-06-26T22:53:10Z</time>
      </trkpt>
      <trkpt lat="43.54957" lon="6.72666">
        <ele>205.529816</ele>
        <time>2010-06-26T22:53:16Z</time>
      </trkpt>
      <trkpt lat="43.54955" lon="6.72672">
        <ele>206.62117</ele>
        <time>2010-06-26T22:53:19Z</time>
      </trkpt>
      <trkpt lat="43.54953" lon="6.72677">
        <ele>207.503036</ele>
        <time>2010-06-26T22:53:22Z</time>
      </trkpt>
      <trkpt lat="43.54948" lon="6.72683">
        <ele>208.840424</ele>
        <time>2010-06-26T22:53:26Z</time>
      </trkpt>
      <trkpt lat="43.54944" lon="6.72692">
        <ele>210.438568</ele>
        <time>2010-06-26T22:53:30Z</time>
      </trkpt>
      <trkpt lat="43.54938" lon="6.727">
        <ele>212.001999</ele>
        <time>2010-06-26T22:53:35Z</time>
      </trkpt>
      <trkpt lat="43.54912" lon="6.72765">
        <ele>217.863571</ele>
        <time>2010-06-26T22:54:05Z</time>
      </trkpt>
      <trkpt lat="43.54905" lon="6.72775">
        <ele>218.551086</ele>
        <time>2010-06-26T22:54:10Z</time>
      </trkpt>
      <trkpt lat="43.54892" lon="6.72762">
        <ele>217.911545</ele>
        <time>2010-06-26T22:54:18Z</time>
      </trkpt>
      <trkpt lat="43.5489" lon="6.7276">
        <ele>217.782715</ele>
        <time>2010-06-26T22:54:20Z</time>
      </trkpt>
      <trkpt lat="43.54884" lon="6.72756">
        <ele>217.518448</ele>
        <time>2010-06-26T22:54:24Z</time>
      </trkpt>
      <trkpt lat="43.54877" lon="6.72752">
        <ele>217.218124</ele>
        <time>2010-06-26T22:54:28Z</time>
      </trkpt>
      <trkpt lat="43.54865" lon="6.72752">
        <ele>217.627487</ele>
        <time>2010-06-26T22:54:34Z</time>
      </trkpt>
      <trkpt lat="43.54854" lon="6.72758">
        <ele>218.701691</ele>
        <time>2010-06-26T22:54:41Z</time>
      </trkpt>
      <trkpt lat="43.54843" lon="6.72762">
        <ele>219.696457</ele>
        <time>2010-06-26T22:54:47Z</time>
      </trkpt>
      <trkpt lat="43.5483" lon="6.72773">
        <ele>221.749863</ele>
        <time>2010-06-26T22:54:54Z</time>
      </trkpt>
      <trkpt lat="43.54822" lon="6.7278">
        <ele>222.543488</ele>
        <time>2010-06-26T22:54:59Z</time>
      </trkpt>
      <trkpt lat="43.54813" lon="6.72786">
        <ele>222.819946</ele>
        <time>2010-06-26T22:55:05Z</time>
      </trkpt>
      <trkpt lat="43.54802" lon="6.72792">
        <ele>223.397949</ele>
        <time>2010-06-26T22:55:11Z</time>
      </trkpt>
      <trkpt lat="43.54794" lon="6.72801">
        <ele>224.727158</ele>
        <time>2010-06-26T22:55:16Z</time>
      </trkpt>
      <trkpt lat="43.54794" lon="6.7281">
        <ele>225.697021</ele>
        <time>2010-06-26T22:55:19Z</time>
      </trkpt>
      <trkpt lat="43.54802" lon="6.72827">
        <ele>225.960007</ele>
        <time>2010-06-26T22:55:27Z</time>
      </trkpt>
      <trkpt lat="43.54811" lon="6.72844">
        <ele>224.943527</ele>
        <time>2010-06-26T22:55:35Z</time>
      </trkpt>
      <trkpt lat="43.54824" lon="6.72874">
        <ele>223.401871</ele>
        <time>2010-06-26T22:55:47Z</time>
      </trkpt>
      <trkpt lat="43.5483" lon="6.72889">
        <ele>223.186493</ele>
        <time>2010-06-26T22:55:53Z</time>
      </trkpt>
      <trkpt lat="43.54845" lon="6.72919">
        <ele>221.637772</ele>
        <time>2010-06-26T22:56:05Z</time>
      </trkpt>
      <trkpt lat="43.54845" lon="6.72925">
        <ele>221.5961</ele>
        <time>2010-06-26T22:56:07Z</time>
      </trkpt>
      <trkpt lat="43.54845" lon="6.72936">
        <ele>221.532028</ele>
        <time>2010-06-26T22:56:10Z</time>
      </trkpt>
      <trkpt lat="43.54845" lon="6.72938">
        <ele>221.520035</ele>
        <time>2010-06-26T22:56:11Z</time>
      </trkpt>
      <trkpt lat="43.54841" lon="6.72953">
        <ele>221.968506</ele>
        <time>2010-06-26T22:56:16Z</time>
      </trkpt>
      <trkpt lat="43.54832" lon="6.72968">
        <ele>222.821411</ele>
        <time>2010-06-26T22:56:22Z</time>
      </trkpt>
      <trkpt lat="43.54817" lon="6.72986">
        <ele>228.105225</ele>
        <time>2010-06-26T22:56:30Z</time>
      </trkpt>
      <trkpt lat="43.54822" lon="6.72992">
        <ele>228.217377</ele>
        <time>2010-06-26T22:56:33Z</time>
      </trkpt>
      <trkpt lat="43.54824" lon="6.72992">
        <ele>227.874908</ele>
        <time>2010-06-26T22:56:34Z</time>
      </trkpt>
      <trkpt lat="43.54832" lon="6.72994">
        <ele>226.847794</ele>
        <time>2010-06-26T22:56:37Z</time>
      </trkpt>
      <trkpt lat="43.54869" lon="6.73007">
        <ele>222.914368</ele>
        <time>2010-06-26T22:56:52Z</time>
      </trkpt>
      <trkpt lat="43.54882" lon="6.73018">
        <ele>223.322632</ele>
        <time>2010-06-26T22:56:58Z</time>
      </trkpt>
      <trkpt lat="43.54873" lon="6.73048">
        <ele>225.935516</ele>
        <time>2010-06-26T22:57:08Z</time>
      </trkpt>
      <trkpt lat="43.54871" lon="6.7305">
        <ele>226.252472</ele>
        <time>2010-06-26T22:57:09Z</time>
      </trkpt>
      <trkpt lat="43.54856" lon="6.73061">
        <ele>229.383438</ele>
        <time>2010-06-26T22:57:16Z</time>
      </trkpt>
      <trkpt lat="43.54852" lon="6.73074">
        <ele>231.16951</ele>
        <time>2010-06-26T22:57:20Z</time>
      </trkpt>
      <trkpt lat="43.54852" lon="6.73076">
        <ele>231.304504</ele>
        <time>2010-06-26T22:57:21Z</time>
      </trkpt>
      <trkpt lat="43.54856" lon="6.73091">
        <ele>231.17923</ele>
        <time>2010-06-26T22:57:26Z</time>
      </trkpt>
      <trkpt lat="43.54856" lon="6.73093">
        <ele>231.305481</ele>
        <time>2010-06-26T22:57:27Z</time>
      </trkpt>
      <trkpt lat="43.54856" lon="6.73099">
        <ele>230.802414</ele>
        <time>2010-06-26T22:57:29Z</time>
      </trkpt>
      <trkpt lat="43.54858" lon="6.73112">
        <ele>228.924744</ele>
        <time>2010-06-26T22:57:34Z</time>
      </trkpt>
      <trkpt lat="43.54854" lon="6.73129">
        <ele>228.16922</ele>
        <time>2010-06-26T22:57:40Z</time>
      </trkpt>
      <trkpt lat="43.5485" lon="6.73129">
        <ele>229.242157</ele>
        <time>2010-06-26T22:57:43Z</time>
      </trkpt>
      <trkpt lat="43.54847" lon="6.73131">
        <ele>229.558212</ele>
        <time>2010-06-26T22:57:44Z</time>
      </trkpt>
      <trkpt lat="43.54845" lon="6.73131">
        <ele>230.096954</ele>
        <time>2010-06-26T22:57:45Z</time>
      </trkpt>
      <trkpt lat="43.54841" lon="6.7314">
        <ele>230.310471</ele>
        <time>2010-06-26T22:57:48Z</time>
      </trkpt>
      <trkpt lat="43.54835" lon="6.73153">
        <ele>230.678055</ele>
        <time>2010-06-26T22:57:52Z</time>
      </trkpt>
      <trkpt lat="43.54815" lon="6.73185">
        <ele>233.465057</ele>
        <time>2010-06-26T22:58:02Z</time>
      </trkpt>
      <trkpt lat="43.54785" lon="6.73234">
        <ele>238.375778</ele>
        <time>2010-06-26T22:58:16Z</time>
      </trkpt>
      <trkpt lat="43.54794" lon="6.73241">
        <ele>237.386047</ele>
        <time>2010-06-26T22:58:22Z</time>
      </trkpt>
      <trkpt lat="43.54802" lon="6.73237">
        <ele>235.854187</ele>
        <time>2010-06-26T22:58:25Z</time>
      </trkpt>
      <trkpt lat="43.54832" lon="6.73215">
        <ele>229.703964</ele>
        <time>2010-06-26T22:58:35Z</time>
      </trkpt>
      <trkpt lat="43.54871" lon="6.73209">
        <ele>225.526169</ele>
        <time>2010-06-26T22:58:47Z</time>
      </trkpt>
      <trkpt lat="43.54892" lon="6.732">
        <ele>222.650681</ele>
        <time>2010-06-26T22:58:54Z</time>
      </trkpt>
      <trkpt lat="43.54895" lon="6.73198">
        <ele>222.125534</ele>
        <time>2010-06-26T22:58:55Z</time>
      </trkpt>
      <trkpt lat="43.54929" lon="6.73192">
        <ele>215.749313</ele>
        <time>2010-06-26T22:59:05Z</time>
      </trkpt>
      <trkpt lat="43.54959" lon="6.73204">
        <ele>212.495575</ele>
        <time>2010-06-26T22:59:13Z</time>
      </trkpt>
      <trkpt lat="43.54968" lon="6.73207">
        <ele>210.794434</ele>
        <time>2010-06-26T22:59:16Z</time>
      </trkpt>
      <trkpt lat="43.54989" lon="6.73207">
        <ele>205.58223</ele>
        <time>2010-06-26T22:59:22Z</time>
      </trkpt>
      <trkpt lat="43.54993" lon="6.73211">
        <ele>205.312759</ele>
        <time>2010-06-26T22:59:24Z</time>
      </trkpt>
      <trkpt lat="43.55004" lon="6.73217">
        <ele>204.468353</ele>
        <time>2010-06-26T22:59:28Z</time>
      </trkpt>
      <trkpt lat="43.55017" lon="6.73232">
        <ele>202.376236</ele>
        <time>2010-06-26T22:59:34Z</time>
      </trkpt>
      <trkpt lat="43.55015" lon="6.73249">
        <ele>203.795502</ele>
        <time>2010-06-26T22:59:37Z</time>
      </trkpt>
      <trkpt lat="43.55013" lon="6.73254">
        <ele>204.549194</ele>
        <time>2010-06-26T22:59:38Z</time>
      </trkpt>
      <trkpt lat="43.55004" lon="6.73267">
        <ele>207.431992</ele>
        <time>2010-06-26T22:59:42Z</time>
      </trkpt>
      <trkpt lat="43.55004" lon="6.73275">
        <ele>207.947083</ele>
        <time>2010-06-26T22:59:44Z</time>
      </trkpt>
      <trkpt lat="43.55013" lon="6.73312">
        <ele>209.317291</ele>
        <time>2010-06-26T22:59:54Z</time>
      </trkpt>
      <trkpt lat="43.55015" lon="6.73314">
        <ele>209.207535</ele>
        <time>2010-06-26T22:59:55Z</time>
      </trkpt>
      <trkpt lat="43.55021" lon="6.73318">
        <ele>208.711609</ele>
        <time>2010-06-26T22:59:58Z</time>
      </trkpt>
      <trkpt lat="43.5503" lon="6.73316">
        <ele>206.711304</ele>
        <time>2010-06-26T23:00:01Z</time>
      </trkpt>
      <trkpt lat="43.55036" lon="6.73316">
        <ele>205.564697</ele>
        <time>2010-06-26T23:00:03Z</time>
      </trkpt>
      <trkpt lat="43.55056" lon="6.73316">
        <ele>202.365082</ele>
        <time>2010-06-26T23:00:08Z</time>
      </trkpt>
      <trkpt lat="43.55073" lon="6.73325">
        <ele>201.196335</ele>
        <time>2010-06-26T23:00:13Z</time>
      </trkpt>
      <trkpt lat="43.5509" lon="6.73333">
        <ele>199.127213</ele>
        <time>2010-06-26T23:00:18Z</time>
      </trkpt>
      <trkpt lat="43.55122" lon="6.73357">
        <ele>190.98349</ele>
        <time>2010-06-26T23:00:28Z</time>
      </trkpt>
      <trkpt lat="43.55126" lon="6.73361">
        <ele>189.701385</ele>
        <time>2010-06-26T23:00:30Z</time>
      </trkpt>
      <trkpt lat="43.55137" lon="6.73374">
        <ele>187.606873</ele>
        <time>2010-06-26T23:00:34Z</time>
      </trkpt>
      <trkpt lat="43.55141" lon="6.7338">
        <ele>186.76236</ele>
        <time>2010-06-26T23:00:36Z</time>
      </trkpt>
      <trkpt lat="43.55148" lon="6.734">
        <ele>185.633713</ele>
        <time>2010-06-26T23:00:40Z</time>
      </trkpt>
      <trkpt lat="43.55154" lon="6.73428">
        <ele>184.125488</ele>
        <time>2010-06-26T23:00:47Z</time>
      </trkpt>
      <trkpt lat="43.55165" lon="6.73492">
        <ele>182.536713</ele>
        <time>2010-06-26T23:01:05Z</time>
      </trkpt>
      <trkpt lat="43.55169" lon="6.73507">
        <ele>185.310196</ele>
        <time>2010-06-26T23:01:10Z</time>
      </trkpt>
      <trkpt lat="43.55178" lon="6.73505">
        <ele>184.199661</ele>
        <time>2010-06-26T23:01:15Z</time>
      </trkpt>
      <trkpt lat="43.5518" lon="6.73505">
        <ele>184.032455</ele>
        <time>2010-06-26T23:01:16Z</time>
      </trkpt>
      <trkpt lat="43.55186" lon="6.73503">
        <ele>183.22612</ele>
        <time>2010-06-26T23:01:23Z</time>
      </trkpt>
      <trkpt lat="43.55201" lon="6.73496">
        <ele>181.567307</ele>
        <time>2010-06-26T23:01:32Z</time>
      </trkpt>
      <trkpt lat="43.55212" lon="6.73494">
        <ele>180.367935</ele>
        <time>2010-06-26T23:01:35Z</time>
      </trkpt>
      <trkpt lat="43.55221" lon="6.73494">
        <ele>179.34549</ele>
        <time>2010-06-26T23:01:38Z</time>
      </trkpt>
      <trkpt lat="43.55247" lon="6.73501">
        <ele>176.517166</ele>
        <time>2010-06-26T23:01:46Z</time>
      </trkpt>
      <trkpt lat="43.55249" lon="6.73524">
        <ele>176.541016</ele>
        <time>2010-06-26T23:01:51Z</time>
      </trkpt>
      <trkpt lat="43.55249" lon="6.73535">
        <ele>176.643951</ele>
        <time>2010-06-26T23:01:53Z</time>
      </trkpt>
      <trkpt lat="43.55244" lon="6.73563">
        <ele>177.916183</ele>
        <time>2010-06-26T23:01:59Z</time>
      </trkpt>
      <trkpt lat="43.55238" lon="6.7358">
        <ele>179.967575</ele>
        <time>2010-06-26T23:02:04Z</time>
      </trkpt>
      <trkpt lat="43.55234" lon="6.73601">
        <ele>181.807068</ele>
        <time>2010-06-26T23:02:10Z</time>
      </trkpt>
      <trkpt lat="43.55238" lon="6.73623">
        <ele>181.352692</ele>
        <time>2010-06-26T23:02:17Z</time>
      </trkpt>
      <trkpt lat="43.5524" lon="6.73642">
        <ele>181.718765</ele>
        <time>2010-06-26T23:02:24Z</time>
      </trkpt>
      <trkpt lat="43.5524" lon="6.73657">
        <ele>182.498444</ele>
        <time>2010-06-26T23:02:29Z</time>
      </trkpt>
      <trkpt lat="43.55232" lon="6.73704">
        <ele>189.181259</ele>
        <time>2010-06-26T23:02:47Z</time>
      </trkpt>
      <trkpt lat="43.55232" lon="6.73717">
        <ele>190.878784</ele>
        <time>2010-06-26T23:02:52Z</time>
      </trkpt>
      <trkpt lat="43.55236" lon="6.73724">
        <ele>190.950974</ele>
        <time>2010-06-26T23:02:55Z</time>
      </trkpt>
      <trkpt lat="43.55238" lon="6.73728">
        <ele>191.191422</ele>
        <time>2010-06-26T23:02:57Z</time>
      </trkpt>
      <trkpt lat="43.5524" lon="6.73732">
        <ele>191.473129</ele>
        <time>2010-06-26T23:02:59Z</time>
      </trkpt>
      <trkpt lat="43.55242" lon="6.73734">
        <ele>191.381989</ele>
        <time>2010-06-26T23:03:00Z</time>
      </trkpt>
      <trkpt lat="43.55247" lon="6.73741">
        <ele>191.457153</ele>
        <time>2010-06-26T23:03:03Z</time>
      </trkpt>
      <trkpt lat="43.55257" lon="6.73756">
        <ele>192.38945</ele>
        <time>2010-06-26T23:03:11Z</time>
      </trkpt>
      <trkpt lat="43.55262" lon="6.73769">
        <ele>194.344894</ele>
        <time>2010-06-26T23:03:17Z</time>
      </trkpt>
      <trkpt lat="43.55283" lon="6.73799">
        <ele>196.028854</ele>
        <time>2010-06-26T23:03:34Z</time>
      </trkpt>
      <trkpt lat="43.55283" lon="6.73801">
        <ele>196.495193</ele>
        <time>2010-06-26T23:03:35Z</time>
      </trkpt>
      <trkpt lat="43.55298" lon="6.73818">
        <ele>196.921326</ele>
        <time>2010-06-26T23:03:46Z</time>
      </trkpt>
      <trkpt lat="43.55309" lon="6.73827">
        <ele>196.252365</ele>
        <time>2010-06-26T23:03:53Z</time>
      </trkpt>
      <trkpt lat="43.55313" lon="6.73835">
        <ele>197.121262</ele>
        <time>2010-06-26T23:03:59Z</time>
      </trkpt>
      <trkpt lat="43.5532" lon="6.73846">
        <ele>197.792297</ele>
        <time>2010-06-26T23:04:05Z</time>
      </trkpt>
      <trkpt lat="43.55324" lon="6.73848">
        <ele>197.065735</ele>
        <time>2010-06-26T23:04:08Z</time>
      </trkpt>
      <trkpt lat="43.55328" lon="6.73852">
        <ele>196.813095</ele>
        <time>2010-06-26T23:04:11Z</time>
      </trkpt>
      <trkpt lat="43.55332" lon="6.73863">
        <ele>197.921463</ele>
        <time>2010-06-26T23:04:17Z</time>
      </trkpt>
      <trkpt lat="43.55335" lon="6.73876">
        <ele>199.877121</ele>
        <time>2010-06-26T23:04:23Z</time>
      </trkpt>
      <trkpt lat="43.55339" lon="6.73889">
        <ele>200.759995</ele>
        <time>2010-06-26T23:04:29Z</time>
      </trkpt>
      <trkpt lat="43.55345" lon="6.7391">
        <ele>202.60614</ele>
        <time>2010-06-26T23:04:40Z</time>
      </trkpt>
      <trkpt lat="43.55347" lon="6.73928">
        <ele>204.96965</ele>
        <time>2010-06-26T23:04:48Z</time>
      </trkpt>
      <trkpt lat="43.55345" lon="6.73938">
        <ele>207.118698</ele>
        <time>2010-06-26T23:04:52Z</time>
      </trkpt>
      <trkpt lat="43.55343" lon="6.73953">
        <ele>208.917389</ele>
        <time>2010-06-26T23:04:58Z</time>
      </trkpt>
      <trkpt lat="43.55347" lon="6.73968">
        <ele>209.353653</ele>
        <time>2010-06-26T23:05:04Z</time>
      </trkpt>
      <trkpt lat="43.5536" lon="6.7397">
        <ele>206.898346</ele>
        <time>2010-06-26T23:05:11Z</time>
      </trkpt>
      <trkpt lat="43.5536" lon="6.73973">
        <ele>207.115021</ele>
        <time>2010-06-26T23:05:12Z</time>
      </trkpt>
      <trkpt lat="43.55367" lon="6.73973">
        <ele>205.868683</ele>
        <time>2010-06-26T23:05:15Z</time>
      </trkpt>
      <trkpt lat="43.55371" lon="6.73977">
        <ele>205.856247</ele>
        <time>2010-06-26T23:05:18Z</time>
      </trkpt>
      <trkpt lat="43.55386" lon="6.73988">
        <ele>205.278061</ele>
        <time>2010-06-26T23:05:28Z</time>
      </trkpt>
      <trkpt lat="43.5539" lon="6.74001">
        <ele>206.070053</ele>
        <time>2010-06-26T23:05:34Z</time>
      </trkpt>
      <trkpt lat="43.55384" lon="6.74005">
        <ele>206.561371</ele>
        <time>2010-06-26T23:05:37Z</time>
      </trkpt>
      <trkpt lat="43.55384" lon="6.74007">
        <ele>206.387451</ele>
        <time>2010-06-26T23:05:38Z</time>
      </trkpt>
      <trkpt lat="43.55375" lon="6.74007">
        <ele>207.373108</ele>
        <time>2010-06-26T23:05:42Z</time>
      </trkpt>
      <trkpt lat="43.55375" lon="6.74007">
        <ele>207.373108</ele>
        <time>2010-06-26T23:05:43Z</time>
      </trkpt>
      <trkpt lat="43.55369" lon="6.74005">
        <ele>208.250839</ele>
        <time>2010-06-26T23:05:46Z</time>
      </trkpt>
      <trkpt lat="43.55358" lon="6.73996">
        <ele>209.920013</ele>
        <time>2010-06-26T23:05:53Z</time>
      </trkpt>
      <trkpt lat="43.55347" lon="6.7399">
        <ele>211.332153</ele>
        <time>2010-06-26T23:05:59Z</time>
      </trkpt>
      <trkpt lat="43.55315" lon="6.73985">
        <ele>217.423615</ele>
        <time>2010-06-26T23:06:17Z</time>
      </trkpt>
      <trkpt lat="43.55304" lon="6.73979">
        <ele>219.77478</ele>
        <time>2010-06-26T23:06:22Z</time>
      </trkpt>
      <trkpt lat="43.55298" lon="6.73966">
        <ele>221.031876</ele>
        <time>2010-06-26T23:06:28Z</time>
      </trkpt>
      <trkpt lat="43.55298" lon="6.73949">
        <ele>220.569733</ele>
        <time>2010-06-26T23:06:35Z</time>
      </trkpt>
      <trkpt lat="43.55298" lon="6.73938">
        <ele>220.302811</ele>
        <time>2010-06-26T23:06:39Z</time>
      </trkpt>
      <trkpt lat="43.553" lon="6.7393">
        <ele>218.97554</ele>
        <time>2010-06-26T23:06:42Z</time>
      </trkpt>
      <trkpt lat="43.55298" lon="6.73919">
        <ele>217.934219</ele>
        <time>2010-06-26T23:06:47Z</time>
      </trkpt>
      <trkpt lat="43.55292" lon="6.73906">
        <ele>217.902649</ele>
        <time>2010-06-26T23:06:53Z</time>
      </trkpt>
      <trkpt lat="43.55266" lon="6.73874">
        <ele>219.946243</ele>
        <time>2010-06-26T23:07:10Z</time>
      </trkpt>
      <trkpt lat="43.55229" lon="6.73867">
        <ele>228.146835</ele>
        <time>2010-06-26T23:07:27Z</time>
      </trkpt>
      <trkpt lat="43.55223" lon="6.73863">
        <ele>227.909164</ele>
        <time>2010-06-26T23:07:31Z</time>
      </trkpt>
      <trkpt lat="43.55204" lon="6.73855">
        <ele>228.007751</ele>
        <time>2010-06-26T23:07:41Z</time>
      </trkpt>
      <trkpt lat="43.55191" lon="6.73855">
        <ele>229.766602</ele>
        <time>2010-06-26T23:07:47Z</time>
      </trkpt>
      <trkpt lat="43.5518" lon="6.73861">
        <ele>233.04393</ele>
        <time>2010-06-26T23:07:52Z</time>
      </trkpt>
      <trkpt lat="43.55169" lon="6.7387">
        <ele>236.338196</ele>
        <time>2010-06-26T23:07:58Z</time>
      </trkpt>
      <trkpt lat="43.55154" lon="6.73867">
        <ele>237.881393</ele>
        <time>2010-06-26T23:08:05Z</time>
      </trkpt>
      <trkpt lat="43.55133" lon="6.73855">
        <ele>239.553177</ele>
        <time>2010-06-26T23:08:16Z</time>
      </trkpt>
      <trkpt lat="43.55122" lon="6.73844">
        <ele>239.810074</ele>
        <time>2010-06-26T23:08:23Z</time>
      </trkpt>
      <trkpt lat="43.55105" lon="6.7382">
        <ele>238.522614</ele>
        <time>2010-06-26T23:08:35Z</time>
      </trkpt>
      <trkpt lat="43.55101" lon="6.7382">
        <ele>239.779984</ele>
        <time>2010-06-26T23:08:37Z</time>
      </trkpt>
      <trkpt lat="43.55096" lon="6.73818">
        <ele>240.528229</ele>
        <time>2010-06-26T23:08:39Z</time>
      </trkpt>
      <trkpt lat="43.55081" lon="6.73814">
        <ele>244.055115</ele>
        <time>2010-06-26T23:08:46Z</time>
      </trkpt>
      <trkpt lat="43.55068" lon="6.73805">
        <ele>246.051331</ele>
        <time>2010-06-26T23:08:52Z</time>
      </trkpt>
      <trkpt lat="43.55068" lon="6.73797">
        <ele>244.116592</ele>
        <time>2010-06-26T23:08:55Z</time>
      </trkpt>
      <trkpt lat="43.55068" lon="6.73786">
        <ele>242.3815</ele>
        <time>2010-06-26T23:08:58Z</time>
      </trkpt>
      <trkpt lat="43.55068" lon="6.73773">
        <ele>241.216736</ele>
        <time>2010-06-26T23:09:02Z</time>
      </trkpt>
      <trkpt lat="43.55064" lon="6.73764">
        <ele>241.680389</ele>
        <time>2010-06-26T23:09:05Z</time>
      </trkpt>
      <trkpt lat="43.55058" lon="6.73752">
        <ele>241.662323</ele>
        <time>2010-06-26T23:09:11Z</time>
      </trkpt>
      <trkpt lat="43.55051" lon="6.73749">
        <ele>241.487274</ele>
        <time>2010-06-26T23:09:14Z</time>
      </trkpt>
      <trkpt lat="43.55051" lon="6.73749">
        <ele>241.487274</ele>
        <time>2010-06-26T23:09:15Z</time>
      </trkpt>
      <trkpt lat="43.55034" lon="6.73752">
        <ele>242.228394</ele>
        <time>2010-06-26T23:09:24Z</time>
      </trkpt>
      <trkpt lat="43.55026" lon="6.73754">
        <ele>242.98172</ele>
        <time>2010-06-26T23:09:29Z</time>
      </trkpt>
      <trkpt lat="43.55006" lon="6.73769">
        <ele>246.779572</ele>
        <time>2010-06-26T23:09:41Z</time>
      </trkpt>
      <trkpt lat="43.54998" lon="6.73777">
        <ele>248.630219</ele>
        <time>2010-06-26T23:09:47Z</time>
      </trkpt>
      <trkpt lat="43.54995" lon="6.73782">
        <ele>249.744308</ele>
        <time>2010-06-26T23:09:49Z</time>
      </trkpt>
      <trkpt lat="43.54991" lon="6.73786">
        <ele>250.676819</ele>
        <time>2010-06-26T23:09:52Z</time>
      </trkpt>
      <trkpt lat="43.54974" lon="6.73801">
        <ele>252.447876</ele>
        <time>2010-06-26T23:10:03Z</time>
      </trkpt>
      <trkpt lat="43.54963" lon="6.73812">
        <ele>254.139603</ele>
        <time>2010-06-26T23:10:11Z</time>
      </trkpt>
      <trkpt lat="43.5494" lon="6.73822">
        <ele>255.948685</ele>
        <time>2010-06-26T23:10:23Z</time>
      </trkpt>
      <trkpt lat="43.54931" lon="6.73825">
        <ele>256.176025</ele>
        <time>2010-06-26T23:10:28Z</time>
      </trkpt>
      <trkpt lat="43.54918" lon="6.7382">
        <ele>255.826691</ele>
        <time>2010-06-26T23:10:35Z</time>
      </trkpt>
      <trkpt lat="43.54908" lon="6.73818">
        <ele>256.296295</ele>
        <time>2010-06-26T23:10:40Z</time>
      </trkpt>
      <trkpt lat="43.54897" lon="6.73807">
        <ele>256.443542</ele>
        <time>2010-06-26T23:10:47Z</time>
      </trkpt>
      <trkpt lat="43.54869" lon="6.73771">
        <ele>258.210938</ele>
        <time>2010-06-26T23:11:05Z</time>
      </trkpt>
      <trkpt lat="43.54854" lon="6.73749">
        <ele>258.377106</ele>
        <time>2010-06-26T23:11:16Z</time>
      </trkpt>
      <trkpt lat="43.5485" lon="6.73732">
        <ele>258.391937</ele>
        <time>2010-06-26T23:11:23Z</time>
      </trkpt>
      <trkpt lat="43.54845" lon="6.73719">
        <ele>258.961243</ele>
        <time>2010-06-26T23:11:28Z</time>
      </trkpt>
      <trkpt lat="43.54815" lon="6.73661">
        <ele>259.26709</ele>
        <time>2010-06-26T23:11:47Z</time>
      </trkpt>
      <trkpt lat="43.54807" lon="6.73636">
        <ele>259.564087</ele>
        <time>2010-06-26T23:11:53Z</time>
      </trkpt>
      <trkpt lat="43.54802" lon="6.7361">
        <ele>260.006195</ele>
        <time>2010-06-26T23:11:59Z</time>
      </trkpt>
      <trkpt lat="43.54798" lon="6.73601">
        <ele>261.154938</ele>
        <time>2010-06-26T23:12:02Z</time>
      </trkpt>
      <trkpt lat="43.54783" lon="6.73558">
        <ele>261.805481</ele>
        <time>2010-06-26T23:12:14Z</time>
      </trkpt>
      <trkpt lat="43.54772" lon="6.73539">
        <ele>261.825806</ele>
        <time>2010-06-26T23:12:20Z</time>
      </trkpt>
      <trkpt lat="43.54747" lon="6.73464">
        <ele>261.646881</ele>
        <time>2010-06-26T23:12:41Z</time>
      </trkpt>
      <trkpt lat="43.54738" lon="6.73451">
        <ele>261.017883</ele>
        <time>2010-06-26T23:12:47Z</time>
      </trkpt>
      <trkpt lat="43.54725" lon="6.7344">
        <ele>260.085297</ele>
        <time>2010-06-26T23:12:53Z</time>
      </trkpt>
      <trkpt lat="43.54714" lon="6.73425">
        <ele>259.954712</ele>
        <time>2010-06-26T23:12:59Z</time>
      </trkpt>
      <trkpt lat="43.54702" lon="6.73406">
        <ele>259.819366</ele>
        <time>2010-06-26T23:13:05Z</time>
      </trkpt>
      <trkpt lat="43.54695" lon="6.73406">
        <ele>259.140442</ele>
        <time>2010-06-26T23:13:12Z</time>
      </trkpt>
      <trkpt lat="43.54695" lon="6.73406">
        <ele>259.140442</ele>
        <time>2010-06-26T23:13:23Z</time>
      </trkpt>
      <trkpt lat="43.54695" lon="6.73404">
        <ele>259.29953</ele>
        <time>2010-06-26T23:13:26Z</time>
      </trkpt>
      <trkpt lat="43.54693" lon="6.73404">
        <ele>259.0755</ele>
        <time>2010-06-26T23:13:27Z</time>
      </trkpt>
      <trkpt lat="43.54695" lon="6.7341">
        <ele>258.82309</ele>
        <time>2010-06-26T23:13:36Z</time>
      </trkpt>
      <trkpt lat="43.54697" lon="6.73413">
        <ele>258.90152</ele>
        <time>2010-06-26T23:13:40Z</time>
      </trkpt>
      <trkpt lat="43.54702" lon="6.73395">
        <ele>260.567993</ele>
        <time>2010-06-26T23:13:46Z</time>
      </trkpt>
      <trkpt lat="43.54695" lon="6.73335">
        <ele>259.07605</ele>
        <time>2010-06-26T23:13:58Z</time>
      </trkpt>
      <trkpt lat="43.54695" lon="6.73329">
        <ele>258.955719</ele>
        <time>2010-06-26T23:13:59Z</time>
      </trkpt>
      <trkpt lat="43.54691" lon="6.73305">
        <ele>256.259064</ele>
        <time>2010-06-26T23:14:03Z</time>
      </trkpt>
      <trkpt lat="43.5468" lon="6.73237">
        <ele>251.804642</ele>
        <time>2010-06-26T23:14:14Z</time>
      </trkpt>
      <trkpt lat="43.5468" lon="6.73222">
        <ele>251.413712</ele>
        <time>2010-06-26T23:14:16Z</time>
      </trkpt>
      <trkpt lat="43.54695" lon="6.73183">
        <ele>252.163544</ele>
        <time>2010-06-26T23:14:22Z</time>
      </trkpt>
      <trkpt lat="43.54695" lon="6.73155">
        <ele>253.997025</ele>
        <time>2010-06-26T23:14:27Z</time>
      </trkpt>
      <trkpt lat="43.54689" lon="6.73134">
        <ele>254.928238</ele>
        <time>2010-06-26T23:14:32Z</time>
      </trkpt>
      <trkpt lat="43.54682" lon="6.73123">
        <ele>255.371109</ele>
        <time>2010-06-26T23:14:36Z</time>
      </trkpt>
      <trkpt lat="43.54674" lon="6.73112">
        <ele>254.738068</ele>
        <time>2010-06-26T23:14:40Z</time>
      </trkpt>
      <trkpt lat="43.54661" lon="6.73095">
        <ele>253.780502</ele>
        <time>2010-06-26T23:14:47Z</time>
      </trkpt>
      <trkpt lat="43.54659" lon="6.73089">
        <ele>254.08519</ele>
        <time>2010-06-26T23:14:49Z</time>
      </trkpt>
      <trkpt lat="43.54633" lon="6.73052">
        <ele>253.660553</ele>
        <time>2010-06-26T23:15:05Z</time>
      </trkpt>
      <trkpt lat="43.54626" lon="6.73039">
        <ele>253.959869</ele>
        <time>2010-06-26T23:15:11Z</time>
      </trkpt>
      <trkpt lat="43.54611" lon="6.73016">
        <ele>253.681992</ele>
        <time>2010-06-26T23:15:22Z</time>
      </trkpt>
      <trkpt lat="43.54605" lon="6.72998">
        <ele>253.598557</ele>
        <time>2010-06-26T23:15:28Z</time>
      </trkpt>
      <trkpt lat="43.54596" lon="6.72958">
        <ele>255.925583</ele>
        <time>2010-06-26T23:15:38Z</time>
      </trkpt>
      <trkpt lat="43.54594" lon="6.72949">
        <ele>255.956848</ele>
        <time>2010-06-26T23:15:40Z</time>
      </trkpt>
      <trkpt lat="43.54586" lon="6.72936">
        <ele>252.81752</ele>
        <time>2010-06-26T23:15:43Z</time>
      </trkpt>
      <trkpt lat="43.54584" lon="6.72932">
        <ele>252.05899</ele>
        <time>2010-06-26T23:15:44Z</time>
      </trkpt>
      <trkpt lat="43.54577" lon="6.72925">
        <ele>250.122589</ele>
        <time>2010-06-26T23:15:46Z</time>
      </trkpt>
      <trkpt lat="43.54573" lon="6.72906">
        <ele>248.735275</ele>
        <time>2010-06-26T23:15:50Z</time>
      </trkpt>
      <trkpt lat="43.54568" lon="6.72898">
        <ele>247.703552</ele>
        <time>2010-06-26T23:15:52Z</time>
      </trkpt>
      <trkpt lat="43.54566" lon="6.72887">
        <ele>247.2603</ele>
        <time>2010-06-26T23:15:54Z</time>
      </trkpt>
      <trkpt lat="43.54564" lon="6.7288">
        <ele>246.614822</ele>
        <time>2010-06-26T23:15:55Z</time>
      </trkpt>
      <trkpt lat="43.54571" lon="6.7285">
        <ele>246.337082</ele>
        <time>2010-06-26T23:16:00Z</time>
      </trkpt>
      <trkpt lat="43.54581" lon="6.72825">
        <ele>246.097656</ele>
        <time>2010-06-26T23:16:05Z</time>
      </trkpt>
      <trkpt lat="43.54588" lon="6.72797">
        <ele>245.513397</ele>
        <time>2010-06-26T23:16:10Z</time>
      </trkpt>
      <trkpt lat="43.54575" lon="6.72679">
        <ele>243.959641</ele>
        <time>2010-06-26T23:16:28Z</time>
      </trkpt>
      <trkpt lat="43.54568" lon="6.72674">
        <ele>244.539383</ele>
        <time>2010-06-26T23:16:31Z</time>
      </trkpt>
      <trkpt lat="43.54553" lon="6.7267">
        <ele>246.24408</ele>
        <time>2010-06-26T23:16:37Z</time>
      </trkpt>
      <trkpt lat="43.54545" lon="6.7267">
        <ele>247.26384</ele>
        <time>2010-06-26T23:16:41Z</time>
      </trkpt>
      <trkpt lat="43.54534" lon="6.72664">
        <ele>248.759888</ele>
        <time>2010-06-26T23:16:47Z</time>
      </trkpt>
      <trkpt lat="43.54523" lon="6.72662">
        <ele>250.177567</ele>
        <time>2010-06-26T23:16:52Z</time>
      </trkpt>
      <trkpt lat="43.54515" lon="6.72653">
        <ele>251.97438</ele>
        <time>2010-06-26T23:16:58Z</time>
      </trkpt>
      <trkpt lat="43.54515" lon="6.72644">
        <ele>252.486511</ele>
        <time>2010-06-26T23:17:01Z</time>
      </trkpt>
      <trkpt lat="43.54515" lon="6.72634">
        <ele>253.137878</ele>
        <time>2010-06-26T23:17:05Z</time>
      </trkpt>
      <trkpt lat="43.54515" lon="6.72627">
        <ele>253.568573</ele>
        <time>2010-06-26T23:17:08Z</time>
      </trkpt>
      <trkpt lat="43.54515" lon="6.72625">
        <ele>253.713486</ele>
        <time>2010-06-26T23:17:09Z</time>
      </trkpt>
      <trkpt lat="43.54515" lon="6.72623">
        <ele>253.85907</ele>
        <time>2010-06-26T23:17:10Z</time>
      </trkpt>
      <trkpt lat="43.54517" lon="6.72619">
        <ele>253.671066</ele>
        <time>2010-06-26T23:17:12Z</time>
      </trkpt>
      <trkpt lat="43.54517" lon="6.72604">
        <ele>254.660706</ele>
        <time>2010-06-26T23:17:18Z</time>
      </trkpt>
      <trkpt lat="43.54519" lon="6.72595">
        <ele>254.667892</ele>
        <time>2010-06-26T23:17:22Z</time>
      </trkpt>
      <trkpt lat="43.54521" lon="6.72567">
        <ele>256.419281</ele>
        <time>2010-06-26T23:17:35Z</time>
      </trkpt>
      <trkpt lat="43.54523" lon="6.72554">
        <ele>257.798767</ele>
        <time>2010-06-26T23:17:40Z</time>
      </trkpt>
      <trkpt lat="43.54526" lon="6.72541">
        <ele>259.323151</ele>
        <time>2010-06-26T23:17:46Z</time>
      </trkpt>
      <trkpt lat="43.54536" lon="6.72513">
        <ele>260.89325</ele>
        <time>2010-06-26T23:17:59Z</time>
      </trkpt>
      <trkpt lat="43.54538" lon="6.72501">
        <ele>261.843384</ele>
        <time>2010-06-26T23:18:05Z</time>
      </trkpt>
      <trkpt lat="43.54543" lon="6.72473">
        <ele>263.844757</ele>
        <time>2010-06-26T23:18:17Z</time>
      </trkpt>
      <trkpt lat="43.54543" lon="6.7246">
        <ele>265.313568</ele>
        <time>2010-06-26T23:18:23Z</time>
      </trkpt>
      <trkpt lat="43.54541" lon="6.72447">
        <ele>266.978363</ele>
        <time>2010-06-26T23:18:28Z</time>
      </trkpt>
      <trkpt lat="43.54534" lon="6.72417">
        <ele>268.882996</ele>
        <time>2010-06-26T23:18:42Z</time>
      </trkpt>
      <trkpt lat="43.54523" lon="6.72383">
        <ele>272.858734</ele>
        <time>2010-06-26T23:18:58Z</time>
      </trkpt>
      <trkpt lat="43.54521" lon="6.72372">
        <ele>274.784882</ele>
        <time>2010-06-26T23:19:04Z</time>
      </trkpt>
      <trkpt lat="43.54521" lon="6.72346">
        <ele>277.735168</ele>
        <time>2010-06-26T23:19:16Z</time>
      </trkpt>
      <trkpt lat="43.54523" lon="6.72333">
        <ele>278.477142</ele>
        <time>2010-06-26T23:19:22Z</time>
      </trkpt>
      <trkpt lat="43.54543" lon="6.72297">
        <ele>280.968201</ele>
        <time>2010-06-26T23:19:43Z</time>
      </trkpt>
      <trkpt lat="43.54547" lon="6.7229">
        <ele>281.458893</ele>
        <time>2010-06-26T23:19:47Z</time>
      </trkpt>
      <trkpt lat="43.54553" lon="6.7228">
        <ele>282.423431</ele>
        <time>2010-06-26T23:19:53Z</time>
      </trkpt>
      <trkpt lat="43.5456" lon="6.72269">
        <ele>283.339539</ele>
        <time>2010-06-26T23:19:59Z</time>
      </trkpt>
      <trkpt lat="43.54573" lon="6.72235">
        <ele>285.764862</ele>
        <time>2010-06-26T23:20:16Z</time>
      </trkpt>
      <trkpt lat="43.54573" lon="6.72232">
        <ele>286.133453</ele>
        <time>2010-06-26T23:20:17Z</time>
      </trkpt>
      <trkpt lat="43.54579" lon="6.72194">
        <ele>289.464325</ele>
        <time>2010-06-26T23:20:35Z</time>
      </trkpt>
      <trkpt lat="43.54584" lon="6.72155">
        <ele>290.997467</ele>
        <time>2010-06-26T23:20:53Z</time>
      </trkpt>
      <trkpt lat="43.54588" lon="6.72125">
        <ele>293.203247</ele>
        <time>2010-06-26T23:21:08Z</time>
      </trkpt>
      <trkpt lat="43.54592" lon="6.7211">
        <ele>293.899353</ele>
        <time>2010-06-26T23:21:16Z</time>
      </trkpt>
      <trkpt lat="43.54594" lon="6.72095">
        <ele>295.329987</ele>
        <time>2010-06-26T23:21:23Z</time>
      </trkpt>
      <trkpt lat="43.54599" lon="6.72086">
        <ele>294.797333</ele>
        <time>2010-06-26T23:21:28Z</time>
      </trkpt>
      <trkpt lat="43.54601" lon="6.72074">
        <ele>295.590912</ele>
        <time>2010-06-26T23:21:34Z</time>
      </trkpt>
      <trkpt lat="43.54592" lon="6.72082">
        <ele>298.204559</ele>
        <time>2010-06-26T23:21:43Z</time>
      </trkpt>
      <trkpt lat="43.54592" lon="6.72082">
        <ele>298.204559</ele>
        <time>2010-06-26T23:21:44Z</time>
      </trkpt>
      <trkpt lat="43.54588" lon="6.72097">
        <ele>297.667389</ele>
        <time>2010-06-26T23:21:52Z</time>
      </trkpt>
      <trkpt lat="43.54581" lon="6.72108">
        <ele>299.043976</ele>
        <time>2010-06-26T23:21:59Z</time>
      </trkpt>
      <trkpt lat="43.54575" lon="6.72132">
        <ele>298.808594</ele>
        <time>2010-06-26T23:22:13Z</time>
      </trkpt>
      <trkpt lat="43.54573" lon="6.72138">
        <ele>299.044128</ele>
        <time>2010-06-26T23:22:17Z</time>
      </trkpt>
      <trkpt lat="43.54566" lon="6.72149">
        <ele>301.122192</ele>
        <time>2010-06-26T23:22:23Z</time>
      </trkpt>
      <trkpt lat="43.54562" lon="6.72157">
        <ele>302.106445</ele>
        <time>2010-06-26T23:22:28Z</time>
      </trkpt>
      <trkpt lat="43.54545" lon="6.72189">
        <ele>304.213776</ele>
        <time>2010-06-26T23:22:48Z</time>
      </trkpt>
      <trkpt lat="43.54536" lon="6.72207">
        <ele>303.9263</ele>
        <time>2010-06-26T23:22:59Z</time>
      </trkpt>
      <trkpt lat="43.5453" lon="6.72213">
        <ele>305.625977</ele>
        <time>2010-06-26T23:23:04Z</time>
      </trkpt>
      <trkpt lat="43.54496" lon="6.72256">
        <ele>312.709259</ele>
        <time>2010-06-26T23:23:35Z</time>
      </trkpt>
      <trkpt lat="43.54455" lon="6.72303">
        <ele>315.024536</ele>
        <time>2010-06-26T23:24:05Z</time>
      </trkpt>
      <trkpt lat="43.5444" lon="6.72314">
        <ele>319.200592</ele>
        <time>2010-06-26T23:24:30Z</time>
      </trkpt>
      <trkpt lat="43.5444" lon="6.72314">
        <ele>319.200592</ele>
        <time>2010-06-26T23:24:47Z</time>
      </trkpt>
      <trkpt lat="43.5444" lon="6.72316">
        <ele>318.902191</ele>
        <time>2010-06-26T23:24:56Z</time>
      </trkpt>
      <trkpt lat="43.54446" lon="6.72307">
        <ele>318.419922</ele>
        <time>2010-06-26T23:25:01Z</time>
      </trkpt>
      <trkpt lat="43.54448" lon="6.72301">
        <ele>318.540741</ele>
        <time>2010-06-26T23:25:03Z</time>
      </trkpt>
      <trkpt lat="43.54472" lon="6.72247">
        <ele>321.367737</ele>
        <time>2010-06-26T23:25:28Z</time>
      </trkpt>
      <trkpt lat="43.54483" lon="6.72232">
        <ele>321.728271</ele>
        <time>2010-06-26T23:25:35Z</time>
      </trkpt>
      <trkpt lat="43.54506" lon="6.72164">
        <ele>324.298615</ele>
        <time>2010-06-26T23:25:54Z</time>
      </trkpt>
      <trkpt lat="43.54523" lon="6.72089">
        <ele>324.062317</ele>
        <time>2010-06-26T23:26:17Z</time>
      </trkpt>
      <trkpt lat="43.54528" lon="6.72067">
        <ele>324.01178</ele>
        <time>2010-06-26T23:26:23Z</time>
      </trkpt>
      <trkpt lat="43.54556" lon="6.71945">
        <ele>322.46756</ele>
        <time>2010-06-26T23:26:54Z</time>
      </trkpt>
      <trkpt lat="43.54573" lon="6.71863">
        <ele>321.6633</ele>
        <time>2010-06-26T23:27:13Z</time>
      </trkpt>
      <trkpt lat="43.54599" lon="6.7172">
        <ele>321.306641</ele>
        <time>2010-06-26T23:27:40Z</time>
      </trkpt>
      <trkpt lat="43.54614" lon="6.71608">
        <ele>326.678436</ele>
        <time>2010-06-26T23:28:06Z</time>
      </trkpt>
      <trkpt lat="43.5462" lon="6.71578">
        <ele>327.684509</ele>
        <time>2010-06-26T23:28:16Z</time>
      </trkpt>
      <trkpt lat="43.54633" lon="6.7155">
        <ele>327.147308</ele>
        <time>2010-06-26T23:28:27Z</time>
      </trkpt>
      <trkpt lat="43.54635" lon="6.71544">
        <ele>327.319061</ele>
        <time>2010-06-26T23:28:29Z</time>
      </trkpt>
      <trkpt lat="43.54669" lon="6.71421">
        <ele>328.820435</ele>
        <time>2010-06-26T23:29:01Z</time>
      </trkpt>
      <trkpt lat="43.54691" lon="6.71288">
        <ele>334.395081</ele>
        <time>2010-06-26T23:29:32Z</time>
      </trkpt>
      <trkpt lat="43.54697" lon="6.7126">
        <ele>336.821136</ele>
        <time>2010-06-26T23:29:40Z</time>
      </trkpt>
      <trkpt lat="43.5471" lon="6.71237">
        <ele>339.497467</ele>
        <time>2010-06-26T23:29:49Z</time>
      </trkpt>
      <trkpt lat="43.54736" lon="6.7119">
        <ele>339.90686</ele>
        <time>2010-06-26T23:30:08Z</time>
      </trkpt>
      <trkpt lat="43.54738" lon="6.71183">
        <ele>340.592499</ele>
        <time>2010-06-26T23:30:11Z</time>
      </trkpt>
      <trkpt lat="43.54744" lon="6.7117">
        <ele>342.162842</ele>
        <time>2010-06-26T23:30:17Z</time>
      </trkpt>
      <trkpt lat="43.54751" lon="6.71144">
        <ele>342.940521</ele>
        <time>2010-06-26T23:30:29Z</time>
      </trkpt>
      <trkpt lat="43.54779" lon="6.71048">
        <ele>342.09967</ele>
        <time>2010-06-26T23:31:00Z</time>
      </trkpt>
      <trkpt lat="43.54798" lon="6.70979">
        <ele>341.244568</ele>
        <time>2010-06-26T23:31:11Z</time>
      </trkpt>
      <trkpt lat="43.54798" lon="6.70971">
        <ele>341.229309</ele>
        <time>2010-06-26T23:31:12Z</time>
      </trkpt>
      <trkpt lat="43.54807" lon="6.70928">
        <ele>340.534454</ele>
        <time>2010-06-26T23:31:17Z</time>
      </trkpt>
      <trkpt lat="43.54817" lon="6.70848">
        <ele>341.750244</ele>
        <time>2010-06-26T23:31:26Z</time>
      </trkpt>
      <trkpt lat="43.54822" lon="6.7082">
        <ele>340.374512</ele>
        <time>2010-06-26T23:31:29Z</time>
      </trkpt>
      <trkpt lat="43.54822" lon="6.70758">
        <ele>341.629211</ele>
        <time>2010-06-26T23:31:39Z</time>
      </trkpt>
      <trkpt lat="43.54822" lon="6.70737">
        <ele>342.086884</ele>
        <time>2010-06-26T23:31:44Z</time>
      </trkpt>
      <trkpt lat="43.54824" lon="6.70722">
        <ele>342.352905</ele>
        <time>2010-06-26T23:31:48Z</time>
      </trkpt>
      <trkpt lat="43.54828" lon="6.70677">
        <ele>343.057281</ele>
        <time>2010-06-26T23:31:59Z</time>
      </trkpt>
      <trkpt lat="43.5483" lon="6.70653">
        <ele>342.315704</ele>
        <time>2010-06-26T23:32:05Z</time>
      </trkpt>
      <trkpt lat="43.54828" lon="6.70533">
        <ele>341.294708</ele>
        <time>2010-06-26T23:32:36Z</time>
      </trkpt>
      <trkpt lat="43.54826" lon="6.70516">
        <ele>340.745148</ele>
        <time>2010-06-26T23:32:41Z</time>
      </trkpt>
      <trkpt lat="43.54828" lon="6.70486">
        <ele>339.317688</ele>
        <time>2010-06-26T23:32:49Z</time>
      </trkpt>
      <trkpt lat="43.54828" lon="6.70473">
        <ele>338.092957</ele>
        <time>2010-06-26T23:32:52Z</time>
      </trkpt>
      <trkpt lat="43.54828" lon="6.70471">
        <ele>337.889313</ele>
        <time>2010-06-26T23:32:53Z</time>
      </trkpt>
      <trkpt lat="43.5483" lon="6.70456">
        <ele>336.423126</ele>
        <time>2010-06-26T23:32:57Z</time>
      </trkpt>
      <trkpt lat="43.54815" lon="6.70447">
        <ele>335.958405</ele>
        <time>2010-06-26T23:33:04Z</time>
      </trkpt>
      <trkpt lat="43.54813" lon="6.70451">
        <ele>336.389008</ele>
        <time>2010-06-26T23:33:05Z</time>
      </trkpt>
      <trkpt lat="43.54811" lon="6.70454">
        <ele>336.623932</ele>
        <time>2010-06-26T23:33:06Z</time>
      </trkpt>
      <trkpt lat="43.54794" lon="6.7046">
        <ele>337.495819</ele>
        <time>2010-06-26T23:33:11Z</time>
      </trkpt>
      <trkpt lat="43.54725" lon="6.70494">
        <ele>334.321747</ele>
        <time>2010-06-26T23:33:30Z</time>
      </trkpt>
      <trkpt lat="43.54717" lon="6.70496">
        <ele>333.891296</ele>
        <time>2010-06-26T23:33:33Z</time>
      </trkpt>
      <trkpt lat="43.54706" lon="6.70496">
        <ele>333.215942</ele>
        <time>2010-06-26T23:33:36Z</time>
      </trkpt>
      <trkpt lat="43.54702" lon="6.70486">
        <ele>332.396667</ele>
        <time>2010-06-26T23:33:39Z</time>
      </trkpt>
      <trkpt lat="43.54702" lon="6.70481">
        <ele>332.151062</ele>
        <time>2010-06-26T23:33:40Z</time>
      </trkpt>
      <trkpt lat="43.54691" lon="6.70475">
        <ele>331.190979</ele>
        <time>2010-06-26T23:33:44Z</time>
      </trkpt>
      <trkpt lat="43.54686" lon="6.70475">
        <ele>331.011475</ele>
        <time>2010-06-26T23:33:46Z</time>
      </trkpt>
      <trkpt lat="43.54614" lon="6.70505">
        <ele>327.539307</ele>
        <time>2010-06-26T23:34:06Z</time>
      </trkpt>
      <trkpt lat="43.54532" lon="6.70539">
        <ele>322.873657</ele>
        <time>2010-06-26T23:34:24Z</time>
      </trkpt>
      <trkpt lat="43.54519" lon="6.70544">
        <ele>322.114319</ele>
        <time>2010-06-26T23:34:26Z</time>
      </trkpt>
      <trkpt lat="43.54472" lon="6.70559">
        <ele>318.592072</ele>
        <time>2010-06-26T23:34:34Z</time>
      </trkpt>
      <trkpt lat="43.54457" lon="6.70574">
        <ele>316.644958</ele>
        <time>2010-06-26T23:34:37Z</time>
      </trkpt>
      <trkpt lat="43.54431" lon="6.70576">
        <ele>315.172028</ele>
        <time>2010-06-26T23:34:41Z</time>
      </trkpt>
      <trkpt lat="43.54367" lon="6.70561">
        <ele>311.763458</ele>
        <time>2010-06-26T23:34:52Z</time>
      </trkpt>
      <trkpt lat="43.5435" lon="6.70559">
        <ele>311.091003</ele>
        <time>2010-06-26T23:34:55Z</time>
      </trkpt>
      <trkpt lat="43.54326" lon="6.70559">
        <ele>309.83786</ele>
        <time>2010-06-26T23:34:59Z</time>
      </trkpt>
      <trkpt lat="43.54298" lon="6.70557">
        <ele>308.595825</ele>
        <time>2010-06-26T23:35:03Z</time>
      </trkpt>
      <trkpt lat="43.54285" lon="6.70557">
        <ele>307.884003</ele>
        <time>2010-06-26T23:35:05Z</time>
      </trkpt>
      <trkpt lat="43.54257" lon="6.7055">
        <ele>306.881958</ele>
        <time>2010-06-26T23:35:10Z</time>
      </trkpt>
      <trkpt lat="43.54264" lon="6.70499">
        <ele>311.078979</ele>
        <time>2010-06-26T23:35:20Z</time>
      </trkpt>
      <trkpt lat="43.54283" lon="6.70353">
        <ele>309.723724</ele>
        <time>2010-06-26T23:35:47Z</time>
      </trkpt>
      <trkpt lat="43.54307" lon="6.70248">
        <ele>312.175934</ele>
        <time>2010-06-26T23:36:05Z</time>
      </trkpt>
      <trkpt lat="43.54317" lon="6.70215">
        <ele>312.360046</ele>
        <time>2010-06-26T23:36:11Z</time>
      </trkpt>
      <trkpt lat="43.54356" lon="6.7011">
        <ele>311.844086</ele>
        <time>2010-06-26T23:36:34Z</time>
      </trkpt>
      <trkpt lat="43.54347" lon="6.70099">
        <ele>311.755219</ele>
        <time>2010-06-26T23:36:38Z</time>
      </trkpt>
      <trkpt lat="43.54337" lon="6.70093">
        <ele>311.266876</ele>
        <time>2010-06-26T23:36:41Z</time>
      </trkpt>
      <trkpt lat="43.54326" lon="6.70091">
        <ele>310.786255</ele>
        <time>2010-06-26T23:36:44Z</time>
      </trkpt>
      <trkpt lat="43.5432" lon="6.70087">
        <ele>310.492493</ele>
        <time>2010-06-26T23:36:46Z</time>
      </trkpt>
      <trkpt lat="43.54296" lon="6.70069">
        <ele>308.185272</ele>
        <time>2010-06-26T23:36:53Z</time>
      </trkpt>
      <trkpt lat="43.54272" lon="6.70059">
        <ele>304.809723</ele>
        <time>2010-06-26T23:37:00Z</time>
      </trkpt>
      <trkpt lat="43.54247" lon="6.7005">
        <ele>301.19986</ele>
        <time>2010-06-26T23:37:08Z</time>
      </trkpt>
      <trkpt lat="43.54208" lon="6.70039">
        <ele>295.365601</ele>
        <time>2010-06-26T23:37:19Z</time>
      </trkpt>
      <trkpt lat="43.54195" lon="6.70035">
        <ele>293.110199</ele>
        <time>2010-06-26T23:37:23Z</time>
      </trkpt>
      <trkpt lat="43.54165" lon="6.70029">
        <ele>285.086243</ele>
        <time>2010-06-26T23:37:32Z</time>
      </trkpt>
      <trkpt lat="43.54159" lon="6.70024">
        <ele>282.730469</ele>
        <time>2010-06-26T23:37:35Z</time>
      </trkpt>
      <trkpt lat="43.54159" lon="6.70009">
        <ele>284.513062</ele>
        <time>2010-06-26T23:37:39Z</time>
      </trkpt>
      <trkpt lat="43.54161" lon="6.70007">
        <ele>285.457947</ele>
        <time>2010-06-26T23:37:40Z</time>
      </trkpt>
      <trkpt lat="43.54174" lon="6.70001">
        <ele>290.42395</ele>
        <time>2010-06-26T23:37:46Z</time>
      </trkpt>
      <trkpt lat="43.54187" lon="6.69999">
        <ele>293.389099</ele>
        <time>2010-06-26T23:38:07Z</time>
      </trkpt>
      <trkpt lat="43.54187" lon="6.70003">
        <ele>293.170807</ele>
        <time>2010-06-26T23:38:45Z</time>
      </trkpt>
    </trkseg>
  </trk>
</gpx>